Home > Products > Valid Products > TAF

000
FTUS41 KCTP 010541
TAFBFD
TAF
KBFD 010541Z 0106/0206 VRB03KT P6SM SKC
     FM010800 VRB03KT 5SM BR FEW040
     FM011300 20005KT P6SM SCT040
     FM011800 20005KT P6SM BKN050=



000
FTUS41 KCTP 010541
TAFJST
TAF
KJST 010541Z 0106/0206 VRB03KT P6SM SCT250
     FM010900 22003KT 5SM BR SCT250
     FM011300 20006KT P6SM SCT040
     FM011800 18006KT P6SM VCSH BKN050=



000
FTUS41 KCTP 010541
TAFUNV
TAF
KUNV 010541Z 0106/0206 00000KT 4SM BR FEW100
     FM010800 00000KT 3/4SM BR SCT250
     FM011300 17004KT P6SM SCT040
     FM011800 16005KT P6SM VCSH BKN050=



000
FTUS41 KCTP 010541
TAFMDT
TAF
KMDT 010541Z 0106/0206 VRB03KT P6SM SCT080
     FM011000 VRB03KT 5SM BR SKC
     FM011300 16003KT P6SM SCT050
     FM011800 14005KT P6SM VCSH BKN060=



000
FTUS41 KCTP 010541
TAFAOO
TAF
KAOO 010541Z 0106/0206 00000KT 6SM BR SKC
     FM010730 00000KT 4SM BR SCT250
     FM011300 17004KT P6SM SCT040
     FM011800 16006KT P6SM VCSH BKN060=



000
FTUS41 KCTP 010541
TAFIPT
TAF
KIPT 010541Z 0106/0206 VRB03KT 5SM BR SCT050 SCT100
     FM010800 00000KT 3/4SM BR SCT003
     FM011300 14004KT P6SM SCT040
     FM011800 14005KT P6SM VCSH BKN050=



000
FTUS41 KCTP 010541
TAFIPT
TAF
KIPT 010541Z 0106/0206 VRB03KT 5SM BR SCT050 SCT100
     FM010800 00000KT 3/4SM BR SCT003
     FM011300 14004KT P6SM SCT040
     FM011800 14005KT P6SM VCSH BKN050=



000
FTUS41 KCTP 010541
TAFAOO
TAF
KAOO 010541Z 0106/0206 00000KT 6SM BR SKC
     FM010730 00000KT 4SM BR SCT250
     FM011300 17004KT P6SM SCT040
     FM011800 16006KT P6SM VCSH BKN060=



000
FTUS41 KCTP 010541
TAFUNV
TAF
KUNV 010541Z 0106/0206 00000KT 4SM BR FEW100
     FM010800 00000KT 3/4SM BR SCT250
     FM011300 17004KT P6SM SCT040
     FM011800 16005KT P6SM VCSH BKN050=



000
FTUS41 KCTP 010541
TAFJST
TAF
KJST 010541Z 0106/0206 VRB03KT P6SM SCT250
     FM010900 22003KT 5SM BR SCT250
     FM011300 20006KT P6SM SCT040
     FM011800 18006KT P6SM VCSH BKN050=



000
FTUS41 KCTP 010541
TAFBFD
TAF
KBFD 010541Z 0106/0206 VRB03KT P6SM SKC
     FM010800 VRB03KT 5SM BR FEW040
     FM011300 20005KT P6SM SCT040
     FM011800 20005KT P6SM BKN050=



000
FTUS41 KCTP 010541
TAFMDT
TAF
KMDT 010541Z 0106/0206 VRB03KT P6SM SCT080
     FM011000 VRB03KT 5SM BR SKC
     FM011300 16003KT P6SM SCT050
     FM011800 14005KT P6SM VCSH BKN060=



000
FTUS41 KCTP 010315 AAA
TAFMDT
TAF AMD
KMDT 010315Z 0103/0124 VRB03KT P6SM SCT100
     FM010900 VRB03KT 5SM BR SCT060
     FM011300 19003KT P6SM SCT050
     FM011800 16005KT P6SM VCSH BKN050=



000
FTUS41 KCTP 010315 AAA
TAFMDT
TAF AMD
KMDT 010315Z 0103/0124 VRB03KT P6SM SCT100
     FM010900 VRB03KT 5SM BR SCT060
     FM011300 19003KT P6SM SCT050
     FM011800 16005KT P6SM VCSH BKN050=



000
FTUS41 KCTP 010314 AAA
TAFUNV
TAF AMD
KUNV 010314Z 0103/0124 VRB03KT P6SM SKC
     FM010500 VRB03KT 4SM BR SKC
     FM011300 19004KT P6SM SCT040
     FM011800 18004KT P6SM VCSH BKN050=



000
FTUS41 KCTP 010314 AAA
TAFUNV
TAF AMD
KUNV 010314Z 0103/0124 VRB03KT P6SM SKC
     FM010500 VRB03KT 4SM BR SKC
     FM011300 19004KT P6SM SCT040
     FM011800 18004KT P6SM VCSH BKN050=



000
FTUS41 KCTP 010314 AAA
TAFIPT
TAF AMD
KIPT 010314Z 0103/0124 VRB03KT P6SM SCT050
     FM010500 VRB03KT 4SM BR SCT050
     FM011400 15006KT P6SM BKN050=



000
FTUS41 KCTP 010314 AAA
TAFIPT
TAF AMD
KIPT 010314Z 0103/0124 VRB03KT P6SM SCT050
     FM010500 VRB03KT 4SM BR SCT050
     FM011400 15006KT P6SM BKN050=



000
FTUS41 KCTP 010313 AAA
TAFAOO
TAF AMD
KAOO 010313Z 0103/0124 VRB03KT P6SM SKC
     FM010600 VRB03KT 4SM BR SCT050
     FM011300 19004KT P6SM SCT040
     FM011800 16004KT P6SM VCSH BKN050=



000
FTUS41 KCTP 010313 AAA
TAFAOO
TAF AMD
KAOO 010313Z 0103/0124 VRB03KT P6SM SKC
     FM010600 VRB03KT 4SM BR SCT050
     FM011300 19004KT P6SM SCT040
     FM011800 16004KT P6SM VCSH BKN050=



000
FTUS41 KCTP 010313 AAA
TAFJST
TAF AMD
KJST 010313Z 0103/0124 24003KT P6SM SCT050
     FM010700 22003KT 5SM BR SCT050
     FM011300 20006KT P6SM SCT040
     FM011800 18006KT P6SM VCSH BKN045=



000
FTUS41 KCTP 010313 AAA
TAFJST
TAF AMD
KJST 010313Z 0103/0124 24003KT P6SM SCT050
     FM010700 22003KT 5SM BR SCT050
     FM011300 20006KT P6SM SCT040
     FM011800 18006KT P6SM VCSH BKN045=



000
FTUS41 KCTP 010312 AAA
TAFBFD
TAF AMD
KBFD 010312Z 0103/0124 VRB03KT P6SM SKC
     FM010500 VRB03KT 5SM BR SCT040
     FM011300 24005KT P6SM SCT040=



000
FTUS41 KCTP 010312 AAA
TAFBFD
TAF AMD
KBFD 010312Z 0103/0124 VRB03KT P6SM SKC
     FM010500 VRB03KT 5SM BR SCT040
     FM011300 24005KT P6SM SCT040=



000
FTUS41 KCTP 312335
TAFAOO
TAF
KAOO 312335Z 0100/0124 23005KT P6SM SCT050
     FM010600 VRB03KT 4SM BR SCT050
     FM011300 19004KT P6SM SCT040
     FM011800 16004KT P6SM VCSH BKN050=



000
FTUS41 KCTP 312335
TAFUNV
TAF
KUNV 312335Z 0100/0124 24005KT P6SM SCT040
     FM010600 VRB03KT 4SM BR SCT050
     FM011300 19004KT P6SM SCT040
     FM011800 18004KT P6SM VCSH BKN050=



000
FTUS41 KCTP 312335
TAFJST
TAF
KJST 312335Z 0100/0124 24005KT P6SM SCT050
     FM010700 22003KT 5SM BR SCT050
     FM011300 20006KT P6SM SCT040
     FM011800 18006KT P6SM VCSH BKN045=



000
FTUS41 KCTP 312335
TAFMDT
TAF
KMDT 312335Z 0100/0124 23003KT P6SM SCT050
     FM010900 VRB03KT 5SM BR SCT060
     FM011300 19003KT P6SM SCT050
     FM011800 16005KT P6SM VCSH BKN050=



000
FTUS41 KCTP 312335
TAFIPT
TAF
KIPT 312335Z 0100/0124 18005KT P6SM VCSH BKN050
     FM010200 VRB03KT P6SM SKC
     FM010600 VRB03KT 4SM BR SCT050
     FM011400 15006KT P6SM BKN050=



000
FTUS41 KCTP 312335
TAFBFD
TAF
KBFD 312335Z 0100/0124 VRB03KT P6SM SKC
     FM010500 VRB03KT 5SM BR SCT040
     FM011300 24005KT P6SM SCT040=



000
FTUS41 KCTP 312335
TAFIPT
TAF
KIPT 312335Z 0100/0124 18005KT P6SM VCSH BKN050
     FM010200 VRB03KT P6SM SKC
     FM010600 VRB03KT 4SM BR SCT050
     FM011400 15006KT P6SM BKN050=



000
FTUS41 KCTP 312335
TAFMDT
TAF
KMDT 312335Z 0100/0124 23003KT P6SM SCT050
     FM010900 VRB03KT 5SM BR SCT060
     FM011300 19003KT P6SM SCT050
     FM011800 16005KT P6SM VCSH BKN050=



000
FTUS41 KCTP 312335
TAFAOO
TAF
KAOO 312335Z 0100/0124 23005KT P6SM SCT050
     FM010600 VRB03KT 4SM BR SCT050
     FM011300 19004KT P6SM SCT040
     FM011800 16004KT P6SM VCSH BKN050=



000
FTUS41 KCTP 312335
TAFBFD
TAF
KBFD 312335Z 0100/0124 VRB03KT P6SM SKC
     FM010500 VRB03KT 5SM BR SCT040
     FM011300 24005KT P6SM SCT040=



000
FTUS41 KCTP 312335
TAFJST
TAF
KJST 312335Z 0100/0124 24005KT P6SM SCT050
     FM010700 22003KT 5SM BR SCT050
     FM011300 20006KT P6SM SCT040
     FM011800 18006KT P6SM VCSH BKN045=



000
FTUS41 KCTP 312335
TAFUNV
TAF
KUNV 312335Z 0100/0124 24005KT P6SM SCT040
     FM010600 VRB03KT 4SM BR SCT050
     FM011300 19004KT P6SM SCT040
     FM011800 18004KT P6SM VCSH BKN050=



000
FTUS41 KCTP 312139 AAA
TAFMDT
TAF AMD
KMDT 312139Z 3122/0118 23004KT P6SM VCSH SCT050
     FM312300 VRB04KT P6SM BKN060
     FM010900 VRB02KT 5SM BR SCT060=



000
FTUS41 KCTP 312139 AAA
TAFMDT
TAF AMD
KMDT 312139Z 3122/0118 23004KT P6SM VCSH SCT050
     FM312300 VRB04KT P6SM BKN060
     FM010900 VRB02KT 5SM BR SCT060=



000
FTUS41 KCTP 312138 AAA
TAFUNV
TAF AMD
KUNV 312138Z 3122/0118 24009KT P6SM SCT040
     FM312300 22006KT P6SM BKN050
     FM010600 20004KT 4SM BR SCT050=



000
FTUS41 KCTP 312138 AAA
TAFUNV
TAF AMD
KUNV 312138Z 3122/0118 24009KT P6SM SCT040
     FM312300 22006KT P6SM BKN050
     FM010600 20004KT 4SM BR SCT050=



000
FTUS41 KCTP 312138 AAB
TAFIPT
TAF AMD
KIPT 312138Z 3122/0118 12005KT P6SM BKN050
     FM312300 25005KT P6SM SCT050
     FM010600 20004KT 4SM BR SCT050=



000
FTUS41 KCTP 312138 AAB
TAFIPT
TAF AMD
KIPT 312138Z 3122/0118 12005KT P6SM BKN050
     FM312300 25005KT P6SM SCT050
     FM010600 20004KT 4SM BR SCT050=



000
FTUS41 KCTP 312137 AAA
TAFAOO
TAF AMD
KAOO 312137Z 3122/0118 26010KT P6SM SCT040
     FM312300 22006KT P6SM SCT050
     FM010600 20004KT 4SM BR SCT050=



000
FTUS41 KCTP 312137 AAA
TAFAOO
TAF AMD
KAOO 312137Z 3122/0118 26010KT P6SM SCT040
     FM312300 22006KT P6SM SCT050
     FM010600 20004KT 4SM BR SCT050=



000
FTUS41 KCTP 312136 AAB
TAFJST
TAF AMD
KJST 312136Z 3122/0118 23010KT P6SM SCT045
     FM010000 24007KT P6SM SCT035
     FM010600 20004KT 5SM BR SCT050=



000
FTUS41 KCTP 312134 AAB
TAFBFD
TAF AMD
KBFD 312134Z 3122/0118 26008G15KT P6SM SCT045
     FM312300 25007KT P6SM SCT045
     FM010200 VRB03KT 5SM BR SCT040=



000
FTUS41 KCTP 312134 AAB
TAFBFD
TAF AMD
KBFD 312134Z 3122/0118 26008G15KT P6SM SCT045
     FM312300 25007KT P6SM SCT045
     FM010200 VRB03KT 5SM BR SCT040=



000
FTUS41 KCTP 311920 AAA
TAFBFD
TAF AMD
KBFD 311920Z 3119/0118 26008G15KT P6SM BKN045
     FM312300 25007KT P6SM SCT045
     FM010200 VRB03KT 5SM BR SCT040=



000
FTUS41 KCTP 311920 AAA
TAFBFD
TAF AMD
KBFD 311920Z 3119/0118 26008G15KT P6SM BKN045
     FM312300 25007KT P6SM SCT045
     FM010200 VRB03KT 5SM BR SCT040=



000
FTUS41 KCTP 311811 AAA
TAFIPT
TAF AMD
KIPT 311811Z 3118/0118 13005KT P6SM SCT040 SCT100
     FM312100 25005KT P6SM VCSH SCT025 BKN050
     FM010600 20004KT 4SM BR SCT050=



000
FTUS41 KCTP 311811 AAA
TAFIPT
TAF AMD
KIPT 311811Z 3118/0118 13005KT P6SM SCT040 SCT100
     FM312100 25005KT P6SM VCSH SCT025 BKN050
     FM010600 20004KT 4SM BR SCT050=



000
FTUS41 KCTP 311810 AAA
TAFJST
TAF AMD
KJST 311810Z 3118/0118 26010KT P6SM SCT035 BKN045
     FM312230 24007KT P6SM SCT029 BKN035
     FM010600 20004KT 5SM BR SCT050=



000
FTUS41 KCTP 311810 AAA
TAFJST
TAF AMD
KJST 311810Z 3118/0118 26010KT P6SM SCT035 BKN045
     FM312230 24007KT P6SM SCT029 BKN035
     FM010600 20004KT 5SM BR SCT050=



000
FTUS41 KCTP 311732
TAFUNV
TAF
KUNV 311732Z 3118/0118 24009KT P6SM SCT030 BKN070
     FM312300 22006KT P6SM BKN050
     FM010600 20004KT 4SM BR SCT050=



000
FTUS41 KCTP 311732
TAFAOO
TAF
KAOO 311732Z 3118/0118 23008KT P6SM SCT028 BKN040
     FM312300 22006KT P6SM BKN050
     FM010600 20004KT 4SM BR SCT050=



000
FTUS41 KCTP 311732
TAFMDT
TAF
KMDT 311732Z 3118/0118 VRB04KT P6SM SCT035
     FM311930 24006KT P6SM VCSH BKN045
     FM312300 VRB04KT P6SM BKN060
     FM010900 VRB02KT 5SM BR SCT060=



000
FTUS41 KCTP 311732
TAFJST
TAF
KJST 311732Z 3118/0118 27010KT P6SM BKN028 BKN035
     FM312230 24007KT P6SM SCT029 BKN035
     FM010600 20004KT 5SM BR SCT050=



000
FTUS41 KCTP 311732
TAFBFD
TAF
KBFD 311732Z 3118/0118 24008G15KT P6SM SCT018 BKN035
      TEMPO 3118/3120 -SHRA OVC035
     FM312000 25009KT P6SM SCT035
     FM010200 VRB03KT 5SM BR SCT040=



000
FTUS41 KCTP 311732
TAFIPT
TAF
KIPT 311732Z 3118/0118 13006KT P6SM OVC017
     FM311900 14006KT P6SM SCT018 BKN023
     FM312100 25005KT P6SM VCSH SCT025 BKN050
     FM010600 20004KT 4SM BR SCT050=



000
FTUS41 KCTP 311732
TAFBFD
TAF
KBFD 311732Z 3118/0118 24008G15KT P6SM SCT018 BKN035
      TEMPO 3118/3120 -SHRA OVC035
     FM312000 25009KT P6SM SCT035
     FM010200 VRB03KT 5SM BR SCT040=



000
FTUS41 KCTP 311732
TAFIPT
TAF
KIPT 311732Z 3118/0118 13006KT P6SM OVC017
     FM311900 14006KT P6SM SCT018 BKN023
     FM312100 25005KT P6SM VCSH SCT025 BKN050
     FM010600 20004KT 4SM BR SCT050=



000
FTUS41 KCTP 311732
TAFUNV
TAF
KUNV 311732Z 3118/0118 24009KT P6SM SCT030 BKN070
     FM312300 22006KT P6SM BKN050
     FM010600 20004KT 4SM BR SCT050=



000
FTUS41 KCTP 311732
TAFJST
TAF
KJST 311732Z 3118/0118 27010KT P6SM BKN028 BKN035
     FM312230 24007KT P6SM SCT029 BKN035
     FM010600 20004KT 5SM BR SCT050=



000
FTUS41 KCTP 311732
TAFMDT
TAF
KMDT 311732Z 3118/0118 VRB04KT P6SM SCT035
     FM311930 24006KT P6SM VCSH BKN045
     FM312300 VRB04KT P6SM BKN060
     FM010900 VRB02KT 5SM BR SCT060=



000
FTUS41 KCTP 311732
TAFAOO
TAF
KAOO 311732Z 3118/0118 23008KT P6SM SCT028 BKN040
     FM312300 22006KT P6SM BKN050
     FM010600 20004KT 4SM BR SCT050=



000
FTUS41 KCTP 311652 AAD
TAFUNV
TAF AMD
KUNV 311652Z 3117/0112 24009KT P6SM BKN040 BKN080
     FM311700 24008KT P6SM SCT040 BKN080
     FM010600 20004KT 4SM BR SCT050=



000
FTUS41 KCTP 311650 AAD
TAFIPT
TAF AMD
KIPT 311650Z 3117/0112 13007KT P6SM OVC015
     FM311800 14006KT P6SM SCT015 BKN022
     FM312000 25005KT P6SM VCSH SCT025 BKN050
     FM010600 20004KT 4SM BR SCT050=



000
FTUS41 KCTP 311650 AAC
TAFBFD
TAF AMD
KBFD 311650Z 3117/0112 24008G15KT P6SM SCT018 BKN035
      TEMPO 3118/3120 -SHRA OVC035
     FM312000 25009KT P6SM SCT035
     FM010200 VRB03KT 5SM BR SCT040=



000
FTUS41 KCTP 311650 AAC
TAFBFD
TAF AMD
KBFD 311650Z 3117/0112 24008G15KT P6SM SCT018 BKN035
      TEMPO 3118/3120 -SHRA OVC035
     FM312000 25009KT P6SM SCT035
     FM010200 VRB03KT 5SM BR SCT040=



000
FTUS41 KCTP 311540 AAB
TAFBFD
TAF AMD
KBFD 311540Z 3116/0112 24008G16KT P6SM SCT018 BKN035
      TEMPO 3116/3119 BKN020 OVC035
     FM311900 25009KT P6SM SCT035
     FM010200 VRB03KT 5SM BR SCT040=



000
FTUS41 KCTP 311540 AAC
TAFIPT
TAF AMD
KIPT 311540Z 3116/0112 VRB03KT P6SM OVC011
     FM311630 24005KT P6SM VCSH SCT012 BKN020
     FM311800 24009KT P6SM VCSH BKN050
     FM010600 20004KT 4SM BR SCT050=



000
FTUS41 KCTP 311540 AAC
TAFJST
TAF AMD
KJST 311540Z 3116/0112 25007KT P6SM VCSH BKN022 OVC035
     FM311630 24009KT P6SM SCT024 BKN035
     FM010600 20004KT 5SM BR SCT050=



000
FTUS41 KCTP 311540 AAB
TAFAOO
TAF AMD
KAOO 311540Z 3116/0112 23008KT P6SM SCT025 OVC035
     FM311700 24009KT P6SM BKN040
     FM010600 20004KT 4SM BR SCT050=



000
FTUS41 KCTP 311540 AAC
TAFUNV
TAF AMD
KUNV 311540Z 3116/0112 23006KT P6SM BKN020 BKN080
     FM311700 24009KT P6SM SCT024 BKN040
     FM010600 20004KT 4SM BR SCT050=



000
FTUS41 KCTP 311540 AAA
TAFMDT
TAF AMD
KMDT 311540Z 3116/0112 30009KT P6SM FEW035
     FM311630 24006KT P6SM SCT040
     FM311900 24009KT P6SM VCSH BKN050
     FM312300 VRB04KT P6SM BKN060
     FM010900 VRB02KT 5SM BR SCT060=



000
FTUS41 KCTP 311540 AAC
TAFUNV
TAF AMD
KUNV 311540Z 3116/0112 23006KT P6SM BKN020 BKN080
     FM311700 24009KT P6SM SCT024 BKN040
     FM010600 20004KT 4SM BR SCT050=



000
FTUS41 KCTP 311540 AAB
TAFAOO
TAF AMD
KAOO 311540Z 3116/0112 23008KT P6SM SCT025 OVC035
     FM311700 24009KT P6SM BKN040
     FM010600 20004KT 4SM BR SCT050=



000
FTUS41 KCTP 311540 AAC
TAFIPT
TAF AMD
KIPT 311540Z 3116/0112 VRB03KT P6SM OVC011
     FM311630 24005KT P6SM VCSH SCT012 BKN020
     FM311800 24009KT P6SM VCSH BKN050
     FM010600 20004KT 4SM BR SCT050=



000
FTUS41 KCTP 311540 AAA
TAFMDT
TAF AMD
KMDT 311540Z 3116/0112 30009KT P6SM FEW035
     FM311630 24006KT P6SM SCT040
     FM311900 24009KT P6SM VCSH BKN050
     FM312300 VRB04KT P6SM BKN060
     FM010900 VRB02KT 5SM BR SCT060=



000
FTUS41 KCTP 311540 AAB
TAFBFD
TAF AMD
KBFD 311540Z 3116/0112 24008G16KT P6SM SCT018 BKN035
      TEMPO 3116/3119 BKN020 OVC035
     FM311900 25009KT P6SM SCT035
     FM010200 VRB03KT 5SM BR SCT040=



000
FTUS41 KCTP 311540 AAC
TAFJST
TAF AMD
KJST 311540Z 3116/0112 25007KT P6SM VCSH BKN022 OVC035
     FM311630 24009KT P6SM SCT024 BKN035
     FM010600 20004KT 5SM BR SCT050=



000
FTUS41 KCTP 311448 AAA
TAFBFD
TAF AMD
KBFD 311448Z 3115/0112 VRB05KT P6SM BKN010 OVC020
     FM311600 23006KT P6SM BKN024 BKN100
     FM311800 25009KT P6SM SCT035
     FM010200 VRB03KT 5SM BR SCT040=



000
FTUS41 KCTP 311448 AAA
TAFBFD
TAF AMD
KBFD 311448Z 3115/0112 VRB05KT P6SM BKN010 OVC020
     FM311600 23006KT P6SM BKN024 BKN100
     FM311800 25009KT P6SM SCT035
     FM010200 VRB03KT 5SM BR SCT040=



000
FTUS41 KCTP 311439 AAB
TAFJST
TAF AMD
KJST 311439Z 3115/0112 23006KT P6SM VCSH BKN015 BKN030
     FM311600 24009KT P6SM SCT020 BKN035
     FM010600 20004KT 5SM BR SCT050=



000
FTUS41 KCTP 311439 AAB
TAFJST
TAF AMD
KJST 311439Z 3115/0112 23006KT P6SM VCSH BKN015 BKN030
     FM311600 24009KT P6SM SCT020 BKN035
     FM010600 20004KT 5SM BR SCT050=



000
FTUS41 KCTP 311438 AAB
TAFIPT
TAF AMD
KIPT 311438Z 3115/0112 VRB03KT P6SM OVC011
     FM311600 24005KT P6SM VCSH SCT012 BKN020
     FM311700 24009KT P6SM BKN050
     FM010600 20004KT 4SM BR SCT050=



000
FTUS41 KCTP 311438 AAB
TAFIPT
TAF AMD
KIPT 311438Z 3115/0112 VRB03KT P6SM OVC011
     FM311600 24005KT P6SM VCSH SCT012 BKN020
     FM311700 24009KT P6SM BKN050
     FM010600 20004KT 4SM BR SCT050=



000
FTUS41 KCTP 311412 AAA
TAFAOO
TAF AMD
KAOO 311412Z 3114/0112 24008KT P6SM BKN022 OVC035
     FM311530 24009KT P6SM BKN050
     FM010600 20004KT 4SM BR SCT050=



000
FTUS41 KCTP 311412 AAA
TAFAOO
TAF AMD
KAOO 311412Z 3114/0112 24008KT P6SM BKN022 OVC035
     FM311530 24009KT P6SM BKN050
     FM010600 20004KT 4SM BR SCT050=



000
FTUS41 KCTP 311358 AAB
TAFUNV
TAF AMD
KUNV 311358Z 3114/0112 24007KT 6SM HZ VCSH SCT010 BKN040
     FM311530 24006KT P6SM BKN045
     FM311700 24009KT P6SM BKN050
     FM010600 20004KT 4SM BR SCT050=



000
FTUS41 KCTP 311358 AAB
TAFUNV
TAF AMD
KUNV 311358Z 3114/0112 24007KT 6SM HZ VCSH SCT010 BKN040
     FM311530 24006KT P6SM BKN045
     FM311700 24009KT P6SM BKN050
     FM010600 20004KT 4SM BR SCT050=



000
FTUS41 KCTP 311332 AAA
TAFIPT
TAF AMD
KIPT 311332Z 3114/0112 VRB03KT 4SM BR OVC008
     FM311410 24005KT P6SM BKN040
     FM311600 24009KT P6SM BKN050
     FM010600 20004KT 4SM BR SCT050=



000
FTUS41 KCTP 311332 AAA
TAFIPT
TAF AMD
KIPT 311332Z 3114/0112 VRB03KT 4SM BR OVC008
     FM311410 24005KT P6SM BKN040
     FM311600 24009KT P6SM BKN050
     FM010600 20004KT 4SM BR SCT050=



000
FTUS41 KCTP 311332 AAA
TAFUNV
TAF AMD
KUNV 311332Z 3114/0112 22004KT 5SM BR SCT010
     FM311410 24005KT P6SM BKN050
     FM311600 24009KT P6SM BKN050
     FM010600 20004KT 4SM BR SCT050=



000
FTUS41 KCTP 311332 AAA
TAFUNV
TAF AMD
KUNV 311332Z 3114/0112 22004KT 5SM BR SCT010
     FM311410 24005KT P6SM BKN050
     FM311600 24009KT P6SM BKN050
     FM010600 20004KT 4SM BR SCT050=



000
FTUS41 KCTP 311202 AAA
TAFJST
TAF AMD
KJST 311202Z 3112/0112 21006KT P6SM VCSH SCT040 BKN100
     FM311600 24009KT P6SM BKN040
     FM010600 20004KT 5SM BR SCT050=



000
FTUS41 KCTP 311202 AAA
TAFJST
TAF AMD
KJST 311202Z 3112/0112 21006KT P6SM VCSH SCT040 BKN100
     FM311600 24009KT P6SM BKN040
     FM010600 20004KT 5SM BR SCT050=



000
FTUS41 KCTP 311139
TAFAOO
TAF
KAOO 311139Z 3112/0112 24004KT 4SM BR SCT050 BKN100
     FM311300 24005KT P6SM BKN050
     FM311600 24009KT P6SM BKN050
     FM010600 20004KT 4SM BR SCT050=



000
FTUS41 KCTP 311139
TAFBFD
TAF
KBFD 311139Z 3112/0112 VRB03KT 5SM BR OVC006
     FM311400 23006KT P6SM BKN040 BKN100
     FM311800 25009KT P6SM SCT040
     FM010200 VRB03KT 5SM BR SCT040=



000
FTUS41 KCTP 311139
TAFUNV
TAF
KUNV 311139Z 3112/0112 22004KT 1 1/2SM BR OVC001
     FM311330 24005KT P6SM BKN050
     FM311600 24009KT P6SM BKN050
     FM010600 20004KT 4SM BR SCT050=



000
FTUS41 KCTP 311139
TAFMDT
TAF
KMDT 311139Z 3112/0112 VRB03KT 4SM BR SCT005
     FM311300 24006KT P6SM FEW050 SCT150=



000
FTUS41 KCTP 311139
TAFJST
TAF
KJST 311139Z 3112/0112 21006KT P6SM SCT040 BKN100
     FM311600 24009KT P6SM BKN040
     FM010600 20004KT 5SM BR SCT050=



000
FTUS41 KCTP 311139
TAFIPT
TAF
KIPT 311139Z 3112/0112 VRB03KT 3SM BR OVC006
     FM311330 24005KT P6SM BKN040
     FM311600 24009KT P6SM BKN050
     FM010600 20004KT 4SM BR SCT050=



000
FTUS41 KCTP 311139
TAFJST
TAF
KJST 311139Z 3112/0112 21006KT P6SM SCT040 BKN100
     FM311600 24009KT P6SM BKN040
     FM010600 20004KT 5SM BR SCT050=



000
FTUS41 KCTP 311139
TAFIPT
TAF
KIPT 311139Z 3112/0112 VRB03KT 3SM BR OVC006
     FM311330 24005KT P6SM BKN040
     FM311600 24009KT P6SM BKN050
     FM010600 20004KT 4SM BR SCT050=



000
FTUS41 KCTP 311139
TAFUNV
TAF
KUNV 311139Z 3112/0112 22004KT 1 1/2SM BR OVC001
     FM311330 24005KT P6SM BKN050
     FM311600 24009KT P6SM BKN050
     FM010600 20004KT 4SM BR SCT050=



000
FTUS41 KCTP 311139
TAFMDT
TAF
KMDT 311139Z 3112/0112 VRB03KT 4SM BR SCT005
     FM311300 24006KT P6SM FEW050 SCT150=



000
FTUS41 KCTP 311139
TAFAOO
TAF
KAOO 311139Z 3112/0112 24004KT 4SM BR SCT050 BKN100
     FM311300 24005KT P6SM BKN050
     FM311600 24009KT P6SM BKN050
     FM010600 20004KT 4SM BR SCT050=



000
FTUS41 KCTP 311139
TAFBFD
TAF
KBFD 311139Z 3112/0112 VRB03KT 5SM BR OVC006
     FM311400 23006KT P6SM BKN040 BKN100
     FM311800 25009KT P6SM SCT040
     FM010200 VRB03KT 5SM BR SCT040=



000
FTUS41 KCTP 310925 AAB
TAFUNV
TAF AMD
KUNV 310925Z 3109/0106 00000KT 1/4SM FG VV001
     FM311200 00000KT 3SM BR BKN018
     FM311300 25008KT P6SM SCT050
     FM010200 VRB03KT P6SM SKC=



000
FTUS41 KCTP 310925 AAB
TAFAOO
TAF AMD
KAOO 310925Z 3109/0106 00000KT 1SM BR VV003
     FM311100 27008KT 4SM BR SCT040
     FM311300 27008KT P6SM SCT040
     FM010100 VRB03KT P6SM SKC=



000
FTUS41 KCTP 310925 AAA
TAFMDT
TAF AMD
KMDT 310925Z 3109/0106 00000KT 6SM BR SCT100
     FM311030 00000KT 4SM BR SCT005 SCT100
     FM311300 24006KT P6SM SCT150=



000
FTUS41 KCTP 310925 AAB
TAFBFD
TAF AMD
KBFD 310925Z 3109/0106 VRB03KT 4SM BR BKN003 BKN100
     FM311300 27007KT P6SM SCT040
     FM010200 VRB03KT 5SM BR SCT010=



000
FTUS41 KCTP 310925 AAA
TAFIPT
TAF AMD
KIPT 310925Z 3109/0106 00000KT 4SM BR BKN008
     FM311200 24007KT P6SM SCT050
     FM010100 VRB03KT P6SM SKC=



000
FTUS41 KCTP 310925 AAB
TAFBFD
TAF AMD
KBFD 310925Z 3109/0106 VRB03KT 4SM BR BKN003 BKN100
     FM311300 27007KT P6SM SCT040
     FM010200 VRB03KT 5SM BR SCT010=



000
FTUS41 KCTP 310925 AAA
TAFJST
TAF AMD
KJST 310925Z 3109/0106 20005KT 4SM BR SCT002 BKN080
     FM311300 26008KT P6SM SCT040
     FM010100 VRB03KT P6SM SKC=



000
FTUS41 KCTP 310925 AAA
TAFMDT
TAF AMD
KMDT 310925Z 3109/0106 00000KT 6SM BR SCT100
     FM311030 00000KT 4SM BR SCT005 SCT100
     FM311300 24006KT P6SM SCT150=



000
FTUS41 KCTP 310925 AAA
TAFJST
TAF AMD
KJST 310925Z 3109/0106 20005KT 4SM BR SCT002 BKN080
     FM311300 26008KT P6SM SCT040
     FM010100 VRB03KT P6SM SKC=



000
FTUS41 KCTP 310925 AAB
TAFAOO
TAF AMD
KAOO 310925Z 3109/0106 00000KT 1SM BR VV003
     FM311100 27008KT 4SM BR SCT040
     FM311300 27008KT P6SM SCT040
     FM010100 VRB03KT P6SM SKC=



000
FTUS41 KCTP 310925 AAA
TAFIPT
TAF AMD
KIPT 310925Z 3109/0106 00000KT 4SM BR BKN008
     FM311200 24007KT P6SM SCT050
     FM010100 VRB03KT P6SM SKC=



000
FTUS41 KCTP 310925 AAB
TAFUNV
TAF AMD
KUNV 310925Z 3109/0106 00000KT 1/4SM FG VV001
     FM311200 00000KT 3SM BR BKN018
     FM311300 25008KT P6SM SCT050
     FM010200 VRB03KT P6SM SKC=



000
FTUS41 KCTP 310749 AAA
TAFBFD
TAF AMD
KBFD 310749Z 3108/0106 VRB03KT 4SM BR BKN005 BKN100
     FM311300 27007KT P6SM SCT040
     FM010200 VRB03KT 5SM BR SCT010=



000
FTUS41 KCTP 310749 AAA
TAFBFD
TAF AMD
KBFD 310749Z 3108/0106 VRB03KT 4SM BR BKN005 BKN100
     FM311300 27007KT P6SM SCT040
     FM010200 VRB03KT 5SM BR SCT010=



000
FTUS41 KCTP 310748 AAA
TAFUNV
TAF AMD
KUNV 310748Z 3108/0106 00000KT 1SM BR VV007
     FM310900 00000KT 1/4SM FG VV003
     FM311200 00000KT 3SM BR BKN018
     FM311300 25008KT P6SM SCT050
     FM010200 VRB03KT P6SM SKC=



000
FTUS41 KCTP 310731 AAA
TAFAOO
TAF AMD
KAOO 310731Z 3108/0106 00000KT 1SM BR VV001
     FM311100 27008KT 4SM BR SCT040
     FM311300 27008KT P6SM SCT040
     FM010100 VRB03KT P6SM SKC=



000
FTUS41 KCTP 310731 AAA
TAFAOO
TAF AMD
KAOO 310731Z 3108/0106 00000KT 1SM BR VV001
     FM311100 27008KT 4SM BR SCT040
     FM311300 27008KT P6SM SCT040
     FM010100 VRB03KT P6SM SKC=



000
FTUS41 KCTP 310534
TAFMDT
TAF
KMDT 310534Z 3106/0106 00000KT 6SM -SHRA BR SCT050 OVC100
     FM310700 00000KT P6SM BKN100
     FM311300 24006KT P6SM SCT150=



000
FTUS41 KCTP 310534
TAFJST
TAF
KJST 310534Z 3106/0106 23005KT P6SM SCT050 BKN100
     FM310800 24005KT 5SM BR VCSH SCT008 BKN080
     FM311300 26008KT P6SM SCT040
     FM010100 VRB03KT P6SM SKC=



000
FTUS41 KCTP 310534
TAFUNV
TAF
KUNV 310534Z 3106/0106 VRB03KT 3SM BR VCSH SCT040 BKN080
     FM310900 VRB03KT 1SM BR SCT080
     FM311200 25008KT P6SM SCT050
     FM010200 VRB03KT P6SM SKC=



000
FTUS41 KCTP 310534
TAFAOO
TAF
KAOO 310534Z 3106/0106 VRB05KT P6SM VCSH SCT040 BKN080
     FM310700 VRB03KT 4SM BR SCT080
     FM311200 27008KT P6SM SCT040
     FM010100 VRB03KT P6SM SKC=



000
FTUS41 KCTP 310534
TAFIPT
TAF
KIPT 310534Z 3106/0106 VRB03KT P6SM BKN007 OVC100
     FM310800 VRB03KT 4SM BR SCT050
     FM311200 24007KT P6SM SCT050
     FM010100 VRB03KT P6SM SKC=



000
FTUS41 KCTP 310534
TAFBFD
TAF
KBFD 310534Z 3106/0106 VRB03KT 6SM BR SCT002 BKN100
     FM310800 00000KT 3SM BR VCSH SCT005 SCT050 BKN100
     FM311500 27007KT P6SM SCT040
     FM010200 VRB03KT 5SM BR SCT010=



000
FTUS41 KCTP 310534
TAFAOO
TAF
KAOO 310534Z 3106/0106 VRB05KT P6SM VCSH SCT040 BKN080
     FM310700 VRB03KT 4SM BR SCT080
     FM311200 27008KT P6SM SCT040
     FM010100 VRB03KT P6SM SKC=



000
FTUS41 KCTP 310534
TAFMDT
TAF
KMDT 310534Z 3106/0106 00000KT 6SM -SHRA BR SCT050 OVC100
     FM310700 00000KT P6SM BKN100
     FM311300 24006KT P6SM SCT150=



000
FTUS41 KCTP 310534
TAFJST
TAF
KJST 310534Z 3106/0106 23005KT P6SM SCT050 BKN100
     FM310800 24005KT 5SM BR VCSH SCT008 BKN080
     FM311300 26008KT P6SM SCT040
     FM010100 VRB03KT P6SM SKC=



000
FTUS41 KCTP 310534
TAFBFD
TAF
KBFD 310534Z 3106/0106 VRB03KT 6SM BR SCT002 BKN100
     FM310800 00000KT 3SM BR VCSH SCT005 SCT050 BKN100
     FM311500 27007KT P6SM SCT040
     FM010200 VRB03KT 5SM BR SCT010=



000
FTUS41 KCTP 310534
TAFIPT
TAF
KIPT 310534Z 3106/0106 VRB03KT P6SM BKN007 OVC100
     FM310800 VRB03KT 4SM BR SCT050
     FM311200 24007KT P6SM SCT050
     FM010100 VRB03KT P6SM SKC=



000
FTUS41 KCTP 310534
TAFUNV
TAF
KUNV 310534Z 3106/0106 VRB03KT 3SM BR VCSH SCT040 BKN080
     FM310900 VRB03KT 1SM BR SCT080
     FM311200 25008KT P6SM SCT050
     FM010200 VRB03KT P6SM SKC=



000
FTUS41 KCTP 310501 AAC
TAFBFD
TAF AMD
KBFD 310501Z 3105/3124 VRB03KT 1/2SM FG VV002
     FM311000 00000KT 3SM BR SCT005
     FM311400 27007KT P6SM SCT040=



000
FTUS41 KCTP 310322 AAA
TAFAOO
TAF AMD
KAOO 310322Z 3103/3124 VRB05KT P6SM VCSH SCT040 BKN080
     FM310700 VRB03KT 6SM BR BKN040
     FM311200 27008KT P6SM SCT040=



000
FTUS41 KCTP 310322 AAA
TAFAOO
TAF AMD
KAOO 310322Z 3103/3124 VRB05KT P6SM VCSH SCT040 BKN080
     FM310700 VRB03KT 6SM BR BKN040
     FM311200 27008KT P6SM SCT040=



000
FTUS41 KCTP 310322 AAB
TAFMDT
TAF AMD
KMDT 310322Z 3103/3124 26005KT 6SM -SHRA BR SCT040 OVC060
     FM310500 00000KT P6SM BKN050
     FM311300 24006KT P6SM SCT150=



000
FTUS41 KCTP 310322 AAA
TAFJST
TAF AMD
KJST 310322Z 3103/3124 23005KT P6SM VCSH SCT050 BKN100
     FM310600 24005KT 5SM BR SCT008
     FM311300 26008KT P6SM SCT040=



000
FTUS41 KCTP 310322 AAA
TAFIPT
TAF AMD
KIPT 310322Z 3103/3124 28008KT P6SM BKN005 OVC050
     FM310600 00000KT P6SM BKN050
     FM310900 VRB03KT 6SM BR SCT025
     FM311200 24007KT P6SM SCT050=



000
FTUS41 KCTP 310322 AAA
TAFUNV
TAF AMD
KUNV 310322Z 3103/3124 VRB03KT 5SM BR VCSH SCT040 BKN080
     FM310500 00000KT P6SM SCT040
     FM310900 VRB03KT 6SM BR SCT100
     FM311200 25008KT P6SM SCT050=



000
FTUS41 KCTP 310322 AAB
TAFBFD
TAF AMD
KBFD 310322Z 3103/3124 VRB03KT 6SM BR SCT002 BKN050
     FM310600 00000KT 3SM BR SCT005
     FM311500 27007KT P6SM SCT040=



000
FTUS41 KCTP 310230 AAA
TAFMDT
TAF AMD
KMDT 310230Z 3102/3124 26005KT 6SM -SHRA BR SCT040 OVC060
     FM310400 00000KT P6SM BKN050
     FM311300 24006KT P6SM SCT150=



000
FTUS41 KCTP 310230 AAA
TAFMDT
TAF AMD
KMDT 310230Z 3102/3124 26005KT 6SM -SHRA BR SCT040 OVC060
     FM310400 00000KT P6SM BKN050
     FM311300 24006KT P6SM SCT150=



000
FTUS41 KCTP 310225 AAA
TAFBFD
TAF AMD
KBFD 310225Z 3102/3124 VRB03KT 3SM BR OVC002
     FM310900 00000KT 5SM BR SCT005
     FM311500 27007KT P6SM SCT040=



000
FTUS41 KCTP 310225 AAA
TAFBFD
TAF AMD
KBFD 310225Z 3102/3124 VRB03KT 3SM BR OVC002
     FM310900 00000KT 5SM BR SCT005
     FM311500 27007KT P6SM SCT040=



000
FTUS41 KCTP 302342
TAFAOO
TAF
KAOO 302342Z 3100/3124 26005KT P6SM VCSH SCT040 BKN080
     FM310200 VRB03KT P6SM SCT080
     FM310900 VRB03KT 6SM BR BKN040
     FM311200 27008KT P6SM SCT040=



000
FTUS41 KCTP 302342
TAFBFD
TAF
KBFD 302342Z 3100/3124 VRB03KT P6SM SCT015 SCT040
     FM310900 00000KT 5SM BR SCT005
     FM311500 27007KT P6SM SCT040=



000
FTUS41 KCTP 302342
TAFMDT
TAF
KMDT 302342Z 3100/3124 26005KT P6SM SCT060=



000
FTUS41 KCTP 302342
TAFJST
TAF
KJST 302342Z 3100/3124 24010KT P6SM VCSH SCT035 SCT100
     FM310200 23005KT P6SM SCT025 BKN050
     FM311000 24005KT 5SM BR SCT008
     FM311300 26008KT P6SM SCT040=



000
FTUS41 KCTP 302342
TAFUNV
TAF
KUNV 302342Z 3100/3124 11008KT P6SM VCSH SCT025 BKN040
     FM310200 00000KT P6SM SCT040
     FM310600 VRB03KT 6SM BR SCT100
     FM311200 25008KT P6SM SCT050=



000
FTUS41 KCTP 302342
TAFIPT
TAF
KIPT 302342Z 3100/3124 28008KT 6SM -SHRA BR SCT025 OVC050
     FM310100 00000KT P6SM VCSH BKN050
     FM311000 VRB03KT 6SM BR SCT025
     FM311200 24007KT P6SM SCT050=



000
FTUS41 KCTP 302342
TAFUNV
TAF
KUNV 302342Z 3100/3124 11008KT P6SM VCSH SCT025 BKN040
     FM310200 00000KT P6SM SCT040
     FM310600 VRB03KT 6SM BR SCT100
     FM311200 25008KT P6SM SCT050=



000
FTUS41 KCTP 302342
TAFBFD
TAF
KBFD 302342Z 3100/3124 VRB03KT P6SM SCT015 SCT040
     FM310900 00000KT 5SM BR SCT005
     FM311500 27007KT P6SM SCT040=



000
FTUS41 KCTP 302342
TAFJST
TAF
KJST 302342Z 3100/3124 24010KT P6SM VCSH SCT035 SCT100
     FM310200 23005KT P6SM SCT025 BKN050
     FM311000 24005KT 5SM BR SCT008
     FM311300 26008KT P6SM SCT040=



000
FTUS41 KCTP 302342
TAFIPT
TAF
KIPT 302342Z 3100/3124 28008KT 6SM -SHRA BR SCT025 OVC050
     FM310100 00000KT P6SM VCSH BKN050
     FM311000 VRB03KT 6SM BR SCT025
     FM311200 24007KT P6SM SCT050=



000
FTUS41 KCTP 302342
TAFAOO
TAF
KAOO 302342Z 3100/3124 26005KT P6SM VCSH SCT040 BKN080
     FM310200 VRB03KT P6SM SCT080
     FM310900 VRB03KT 6SM BR BKN040
     FM311200 27008KT P6SM SCT040=



000
FTUS41 KCTP 302342
TAFMDT
TAF
KMDT 302342Z 3100/3124 26005KT P6SM SCT060=



000
FTUS41 KCTP 302305 AAB
TAFIPT
TAF AMD
KIPT 302305Z 3023/3118 27008KT 6SM -TSRA BR SCT015 BKN040CB
     FM310100 25007KT P6SM -SHRA BKN035 OVC060
     FM310200 VRB05KT P6SM SCT050
     FM311100 VRB03KT 5SM BR BKN004
     FM311230 25005KT P6SM SCT005 BKN250=



000
FTUS41 KCTP 302305 AAB
TAFIPT
TAF AMD
KIPT 302305Z 3023/3118 27008KT 6SM -TSRA BR SCT015 BKN040CB
     FM310100 25007KT P6SM -SHRA BKN035 OVC060
     FM310200 VRB05KT P6SM SCT050
     FM311100 VRB03KT 5SM BR BKN004
     FM311230 25005KT P6SM SCT005 BKN250=



000
FTUS41 KCTP 302302 AAB
TAFUNV
TAF AMD
KUNV 302302Z 3023/3118 23008KT 5SM -RA BR SCT025 BKN040
     FM310100 25006KT P6SM SCT025 BKN060
     FM310800 VRB03KT 5SM BR SCT050
     FM311100 24003KT 6SM BR BKN050
     FM311200 25005KT P6SM BKN250=



000
FTUS41 KCTP 302302 AAB
TAFUNV
TAF AMD
KUNV 302302Z 3023/3118 23008KT 5SM -RA BR SCT025 BKN040
     FM310100 25006KT P6SM SCT025 BKN060
     FM310800 VRB03KT 5SM BR SCT050
     FM311100 24003KT 6SM BR BKN050
     FM311200 25005KT P6SM BKN250=



000
FTUS41 KCTP 302301 AAC
TAFBFD
TAF AMD
KBFD 302301Z 3023/3118 24006KT P6SM VCSH SCT012 BKN020
     FM310300 00000KT 5SM BR OVC250
     FM310600 00000KT 2SM BR BKN014 OVC070
     FM310900 00000KT 2SM BR OVC001
     FM311200 27003KT 4SM BR OVC003
     FM311300 27004KT 6SM HZ OVC007
     FM311400 29006KT P6SM BKN250=



000
FTUS41 KCTP 302301 AAC
TAFBFD
TAF AMD
KBFD 302301Z 3023/3118 24006KT P6SM VCSH SCT012 BKN020
     FM310300 00000KT 5SM BR OVC250
     FM310600 00000KT 2SM BR BKN014 OVC070
     FM310900 00000KT 2SM BR OVC001
     FM311200 27003KT 4SM BR OVC003
     FM311300 27004KT 6SM HZ OVC007
     FM311400 29006KT P6SM BKN250=



000
FTUS41 KCTP 302132 AAA
TAFUNV
TAF AMD
KUNV 302132Z 3022/3118 23008KT P6SM VCSH SCT050 BKN080
     FM302200 21007KT 5SM SHRA SCT025 OVC035
     FM302300 26006KT P6SM BKN035
     FM310800 VRB03KT 5SM BR SCT050
     FM311100 24003KT 6SM BR BKN050
     FM311200 25005KT P6SM BKN250=



000
FTUS41 KCTP 302132 AAA
TAFAOO
TAF AMD
KAOO 302132Z 3022/3118 20007KT P6SM VCSH BKN040
     FM310100 28007KT P6SM SCT050
     FM310800 VRB03KT 5SM BR BKN040
     FM311200 26006KT P6SM BKN250=



000
FTUS41 KCTP 302132 AAA
TAFIPT
TAF AMD
KIPT 302132Z 3022/3118 19007KT P6SM SCT035 BKN080
     FM302200 25007KT P6SM SHRA BKN035 OVC060
     FM310200 VRB05KT P6SM SCT050
     FM311100 VRB03KT 5SM BR BKN004
     FM311230 25005KT P6SM SCT005 BKN250=



000
FTUS41 KCTP 302132 AAB
TAFBFD
TAF AMD
KBFD 302132Z 3022/3118 24006KT P6SM VCSH SCT012 BKN120
     FM310300 00000KT 5SM BR OVC250
     FM310600 00000KT 2SM BR BKN014 OVC070
     FM310900 00000KT 2SM BR OVC001
     FM311200 27003KT 4SM BR OVC003
     FM311300 27004KT 6SM HZ OVC007
     FM311400 29006KT P6SM BKN250=



000
FTUS41 KCTP 302132 AAA
TAFUNV
TAF AMD
KUNV 302132Z 3022/3118 23008KT P6SM VCSH SCT050 BKN080
     FM302200 21007KT 5SM SHRA SCT025 OVC035
     FM302300 26006KT P6SM BKN035
     FM310800 VRB03KT 5SM BR SCT050
     FM311100 24003KT 6SM BR BKN050
     FM311200 25005KT P6SM BKN250=



000
FTUS41 KCTP 302132 AAA
TAFJST
TAF AMD
KJST 302132Z 3022/3118 22007KT P6SM VCSH SCT035 BKN090
     FM310000 28007KT P6SM SCT040
     FM310700 24005KT 5SM BR BKN006 BKN040
     FM311200 24005KT 6SM BR SCT007 OVC050
     FM311300 26007KT 6SM HZ BKN250=



000
FTUS41 KCTP 302132 AAA
TAFMDT
TAF AMD
KMDT 302132Z 3022/3118 28005KT P6SM SCT050
     FM310000 24006KT P6SM VCSH SCT050 BKN080
     FM310200 VRB05KT P6SM SKC
     FM311200 27004KT P6SM FEW250=



000
FTUS41 KCTP 302132 AAB
TAFBFD
TAF AMD
KBFD 302132Z 3022/3118 24006KT P6SM VCSH SCT012 BKN120
     FM310300 00000KT 5SM BR OVC250
     FM310600 00000KT 2SM BR BKN014 OVC070
     FM310900 00000KT 2SM BR OVC001
     FM311200 27003KT 4SM BR OVC003
     FM311300 27004KT 6SM HZ OVC007
     FM311400 29006KT P6SM BKN250=



000
FTUS41 KCTP 302132 AAA
TAFAOO
TAF AMD
KAOO 302132Z 3022/3118 20007KT P6SM VCSH BKN040
     FM310100 28007KT P6SM SCT050
     FM310800 VRB03KT 5SM BR BKN040
     FM311200 26006KT P6SM BKN250=



000
FTUS41 KCTP 302132 AAA
TAFIPT
TAF AMD
KIPT 302132Z 3022/3118 19007KT P6SM SCT035 BKN080
     FM302200 25007KT P6SM SHRA BKN035 OVC060
     FM310200 VRB05KT P6SM SCT050
     FM311100 VRB03KT 5SM BR BKN004
     FM311230 25005KT P6SM SCT005 BKN250=



000
FTUS41 KCTP 302132 AAA
TAFMDT
TAF AMD
KMDT 302132Z 3022/3118 28005KT P6SM SCT050
     FM310000 24006KT P6SM VCSH SCT050 BKN080
     FM310200 VRB05KT P6SM SKC
     FM311200 27004KT P6SM FEW250=



000
FTUS41 KCTP 302132 AAA
TAFJST
TAF AMD
KJST 302132Z 3022/3118 22007KT P6SM VCSH SCT035 BKN090
     FM310000 28007KT P6SM SCT040
     FM310700 24005KT 5SM BR BKN006 BKN040
     FM311200 24005KT 6SM BR SCT007 OVC050
     FM311300 26007KT 6SM HZ BKN250=



000
FTUS41 KCTP 301947 AAA
TAFBFD
TAF AMD
KBFD 301947Z 3020/3118 23007KT P6SM VCSH SCT025 BKN070
     FM310300 00000KT 5SM BR OVC250
     FM310600 00000KT 2SM BR BKN014 OVC070
     FM310900 00000KT 2SM BR OVC001
     FM311200 27003KT 4SM BR OVC003
     FM311300 27004KT 6SM HZ OVC007
     FM311400 29006KT P6SM BKN250=



000
FTUS41 KCTP 301947 AAA
TAFBFD
TAF AMD
KBFD 301947Z 3020/3118 23007KT P6SM VCSH SCT025 BKN070
     FM310300 00000KT 5SM BR OVC250
     FM310600 00000KT 2SM BR BKN014 OVC070
     FM310900 00000KT 2SM BR OVC001
     FM311200 27003KT 4SM BR OVC003
     FM311300 27004KT 6SM HZ OVC007
     FM311400 29006KT P6SM BKN250=



000
FTUS41 KCTP 301739
TAFBFD
TAF
KBFD 301739Z 3018/3118 23007KT P6SM VCSH BKN013 BKN070
     FM302100 26006KT P6SM BKN019 BKN040
     FM310300 00000KT 5SM BR OVC250
     FM310600 00000KT 2SM BR BKN014 OVC070
     FM310900 00000KT 2SM BR OVC001
     FM311200 27003KT 4SM BR OVC003
     FM311300 27004KT 6SM HZ OVC007
     FM311400 29006KT P6SM BKN250=



000
FTUS41 KCTP 301739
TAFJST
TAF
KJST 301739Z 3018/3118 25008KT P6SM SCT027 BKN045
     FM301900 27008KT P6SM VCSH BKN035
     FM302200 28007KT P6SM SCT040
     FM310700 24005KT 5SM BR BKN006 BKN040
     FM311200 24005KT 6SM BR SCT007 OVC050
     FM311300 26007KT 6SM HZ BKN250=



000
FTUS41 KCTP 301739
TAFIPT
TAF
KIPT 301739Z 3018/3118 VRB02KT P6SM SCT035 BKN080
     FM301900 25007KT P6SM VCSH BKN040 BKN070
     FM310200 VRB05KT P6SM SCT050
     FM311100 VRB03KT 5SM BR BKN004
     FM311230 25005KT P6SM SCT005 BKN250=



000
FTUS41 KCTP 301739
TAFAOO
TAF
KAOO 301739Z 3018/3118 22008G15KT P6SM SCT035 BKN070
     FM301900 27007KT P6SM VCSH BKN040
     FM302300 28007KT P6SM SCT050
     FM310800 VRB03KT 5SM BR BKN040
     FM311100 23002KT 6SM BR SCT050
     FM311200 26006KT P6SM BKN250=



000
FTUS41 KCTP 301739
TAFMDT
TAF
KMDT 301739Z 3018/3118 28005KT P6SM SCT040
     FM302200 24006KT P6SM VCSH SCT050 BKN080
     FM310200 VRB05KT P6SM SKC
     FM311200 27004KT P6SM FEW250=



000
FTUS41 KCTP 301739
TAFUNV
TAF
KUNV 301739Z 3018/3118 22011KT P6SM BKN030 OVC080
     FM302000 23009KT P6SM VCSH BKN035 BKN070
     FM302300 26006KT P6SM SCT050
     FM310800 VRB03KT 5SM BR SCT050
     FM311100 24003KT 6SM BR BKN050
     FM311200 25005KT P6SM BKN250=



000
FTUS41 KCTP 301739
TAFMDT
TAF
KMDT 301739Z 3018/3118 28005KT P6SM SCT040
     FM302200 24006KT P6SM VCSH SCT050 BKN080
     FM310200 VRB05KT P6SM SKC
     FM311200 27004KT P6SM FEW250=



000
FTUS41 KCTP 301739
TAFIPT
TAF
KIPT 301739Z 3018/3118 VRB02KT P6SM SCT035 BKN080
     FM301900 25007KT P6SM VCSH BKN040 BKN070
     FM310200 VRB05KT P6SM SCT050
     FM311100 VRB03KT 5SM BR BKN004
     FM311230 25005KT P6SM SCT005 BKN250=



000
FTUS41 KCTP 301739
TAFAOO
TAF
KAOO 301739Z 3018/3118 22008G15KT P6SM SCT035 BKN070
     FM301900 27007KT P6SM VCSH BKN040
     FM302300 28007KT P6SM SCT050
     FM310800 VRB03KT 5SM BR BKN040
     FM311100 23002KT 6SM BR SCT050
     FM311200 26006KT P6SM BKN250=



000
FTUS41 KCTP 301739
TAFJST
TAF
KJST 301739Z 3018/3118 25008KT P6SM SCT027 BKN045
     FM301900 27008KT P6SM VCSH BKN035
     FM302200 28007KT P6SM SCT040
     FM310700 24005KT 5SM BR BKN006 BKN040
     FM311200 24005KT 6SM BR SCT007 OVC050
     FM311300 26007KT 6SM HZ BKN250=



000
FTUS41 KCTP 301739
TAFUNV
TAF
KUNV 301739Z 3018/3118 22011KT P6SM BKN030 OVC080
     FM302000 23009KT P6SM VCSH BKN035 BKN070
     FM302300 26006KT P6SM SCT050
     FM310800 VRB03KT 5SM BR SCT050
     FM311100 24003KT 6SM BR BKN050
     FM311200 25005KT P6SM BKN250=



000
FTUS41 KCTP 301739
TAFBFD
TAF
KBFD 301739Z 3018/3118 23007KT P6SM VCSH BKN013 BKN070
     FM302100 26006KT P6SM BKN019 BKN040
     FM310300 00000KT 5SM BR OVC250
     FM310600 00000KT 2SM BR BKN014 OVC070
     FM310900 00000KT 2SM BR OVC001
     FM311200 27003KT 4SM BR OVC003
     FM311300 27004KT 6SM HZ OVC007
     FM311400 29006KT P6SM BKN250=



000
FTUS41 KCTP 301718 AAB
TAFUNV
TAF AMD
KUNV 301718Z 3017/3112 22009KT P6SM SCT035 BKN070
     FM302000 24007KT P6SM VCSH BKN040 BKN070
     FM302300 26006KT P6SM SCT050=



000
FTUS41 KCTP 301716 AAD
TAFBFD
TAF AMD
KBFD 301716Z 3017/3112 19005KT P6SM BKN019 BKN080
     FM301800 23007KT P6SM VCSH BKN023 BKN070
     FM302100 26006KT P6SM BKN040=



000
FTUS41 KCTP 301716 AAD
TAFBFD
TAF AMD
KBFD 301716Z 3017/3112 19005KT P6SM BKN019 BKN080
     FM301800 23007KT P6SM VCSH BKN023 BKN070
     FM302100 26006KT P6SM BKN040=



000
FTUS41 KCTP 301636 AAC
TAFBFD
TAF AMD
KBFD 301636Z 3017/3112 19005KT P6SM BKN006 BKN060
     FM301710 23007KT P6SM VCSH SCT007 BKN050
     FM302100 26006KT P6SM BKN040=



000
FTUS41 KCTP 301539 AAB
TAFIPT
TAF AMD
KIPT 301539Z 3016/3112 VRB02KT P6SM BKN080
     FM301900 25007KT P6SM VCSH BKN040 BKN070
     FM310200 VRB05KT P6SM SCT050
     FM311100 VRB03KT 5SM BR BKN004=



000
FTUS41 KCTP 301539 AAA
TAFUNV
TAF AMD
KUNV 301539Z 3016/3112 23007KT P6SM SCT035
     FM301900 27007KT P6SM VCSH BKN040
     FM302300 28007KT P6SM SCT050=



000
FTUS41 KCTP 301539 AAA
TAFJST
TAF AMD
KJST 301539Z 3016/3112 23008KT P6SM SCT027 BKN045
     FM301800 27008KT P6SM VCSH BKN035
     FM302200 28007KT P6SM SCT040=



000
FTUS41 KCTP 301539 AAA
TAFJST
TAF AMD
KJST 301539Z 3016/3112 23008KT P6SM SCT027 BKN045
     FM301800 27008KT P6SM VCSH BKN035
     FM302200 28007KT P6SM SCT040=



000
FTUS41 KCTP 301539 AAB
TAFIPT
TAF AMD
KIPT 301539Z 3016/3112 VRB02KT P6SM BKN080
     FM301900 25007KT P6SM VCSH BKN040 BKN070
     FM310200 VRB05KT P6SM SCT050
     FM311100 VRB03KT 5SM BR BKN004=



000
FTUS41 KCTP 301539 AAA
TAFAOO
TAF AMD
KAOO 301539Z 3016/3112 23006KT P6SM SCT045 BKN070
     FM301900 27007KT P6SM VCSH BKN040
     FM302300 28007KT P6SM SCT050=



000
FTUS41 KCTP 301539 AAA
TAFMDT
TAF AMD
KMDT 301539Z 3016/3112 28005KT P6SM SCT050
     FM302200 26007KT P6SM VCSH SCT050 BKN080
     FM310200 VRB05KT P6SM SKC=



000
FTUS41 KCTP 301539 AAA
TAFMDT
TAF AMD
KMDT 301539Z 3016/3112 28005KT P6SM SCT050
     FM302200 26007KT P6SM VCSH SCT050 BKN080
     FM310200 VRB05KT P6SM SKC=



000
FTUS41 KCTP 301539 AAA
TAFAOO
TAF AMD
KAOO 301539Z 3016/3112 23006KT P6SM SCT045 BKN070
     FM301900 27007KT P6SM VCSH BKN040
     FM302300 28007KT P6SM SCT050=



000
FTUS41 KCTP 301539 AAB
TAFBFD
TAF AMD
KBFD 301539Z 3016/3112 19006KT P6SM -SHRA BKN050 OVC070
     FM301615 23007KT P6SM VCSH BKN035 BKN050
     FM302100 26006KT P6SM BKN040=



000
FTUS41 KCTP 301539 AAA
TAFUNV
TAF AMD
KUNV 301539Z 3016/3112 23007KT P6SM SCT035
     FM301900 27007KT P6SM VCSH BKN040
     FM302300 28007KT P6SM SCT050=



000
FTUS41 KCTP 301539 AAB
TAFBFD
TAF AMD
KBFD 301539Z 3016/3112 19006KT P6SM -SHRA BKN050 OVC070
     FM301615 23007KT P6SM VCSH BKN035 BKN050
     FM302100 26006KT P6SM BKN040=



000
FTUS41 KCTP 301509 AAA
TAFBFD
TAF AMD
KBFD 301509Z 3015/3112 22006KT P6SM -SHRA SCT025 OVC050
     FM301700 25007KT P6SM VCSH BKN035 OVC050
     FM302100 26006KT P6SM BKN040=



000
FTUS41 KCTP 301509 AAA
TAFBFD
TAF AMD
KBFD 301509Z 3015/3112 22006KT P6SM -SHRA SCT025 OVC050
     FM301700 25007KT P6SM VCSH BKN035 OVC050
     FM302100 26006KT P6SM BKN040=



000
FTUS41 KCTP 301328 AAA
TAFIPT
TAF AMD
KIPT 301328Z 3013/3112 VRB02KT P6SM OVC006
     FM301415 25006KT P6SM FEW007
     FM301700 26007KT P6SM VCSH BKN040
     FM310200 VRB05KT P6SM SCT050
     FM311100 VRB03KT 5SM BR BKN004=



000
FTUS41 KCTP 301140
TAFAOO
TAF
KAOO 301140Z 3012/3112 22005KT P6SM SKC
     FM301500 25007KT P6SM SCT035
     FM301700 27007KT P6SM VCSH BKN040
     FM302300 28007KT P6SM SCT050=



000
FTUS41 KCTP 301140
TAFMDT
TAF
KMDT 301140Z 3012/3112 VRB04KT P6SM SCT080
     FM301500 25007KT P6SM SCT050
     FM301900 27007KT P6SM VCSH BKN050
     FM310200 VRB05KT P6SM SKC=



000
FTUS41 KCTP 301140
TAFUNV
TAF
KUNV 301140Z 3012/3112 23005KT P6SM SKC
     FM301500 25007KT P6SM SCT035
     FM301700 27007KT P6SM VCSH BKN040
     FM302300 28007KT P6SM SCT050=



000
FTUS41 KCTP 301140
TAFJST
TAF
KJST 301140Z 3012/3112 24007KT P6SM SCT030
     FM301400 25008KT P6SM BKN035
     FM301600 27008KT P6SM VCSH BKN035
     FM302200 28007KT P6SM SCT040=



000
FTUS41 KCTP 301140
TAFIPT
TAF
KIPT 301140Z 3012/3112 VRB03KT 4SM BR BKN004
     FM301300 25007KT P6SM SKC
     FM301700 26007KT P6SM VCSH BKN040
     FM310200 VRB05KT P6SM SCT050
     FM311100 VRB03KT 5SM BR BKN004=



000
FTUS41 KCTP 301140
TAFBFD
TAF
KBFD 301140Z 3012/3112 22007KT P6SM -SHRA OVC025
     FM301700 25007KT P6SM VCSH BKN035
     FM302100 26006KT P6SM BKN040=



000
FTUS41 KCTP 301140
TAFMDT
TAF
KMDT 301140Z 3012/3112 VRB04KT P6SM SCT080
     FM301500 25007KT P6SM SCT050
     FM301900 27007KT P6SM VCSH BKN050
     FM310200 VRB05KT P6SM SKC=



000
FTUS41 KCTP 301140
TAFBFD
TAF
KBFD 301140Z 3012/3112 22007KT P6SM -SHRA OVC025
     FM301700 25007KT P6SM VCSH BKN035
     FM302100 26006KT P6SM BKN040=



000
FTUS41 KCTP 301140
TAFAOO
TAF
KAOO 301140Z 3012/3112 22005KT P6SM SKC
     FM301500 25007KT P6SM SCT035
     FM301700 27007KT P6SM VCSH BKN040
     FM302300 28007KT P6SM SCT050=



000
FTUS41 KCTP 301140
TAFIPT
TAF
KIPT 301140Z 3012/3112 VRB03KT 4SM BR BKN004
     FM301300 25007KT P6SM SKC
     FM301700 26007KT P6SM VCSH BKN040
     FM310200 VRB05KT P6SM SCT050
     FM311100 VRB03KT 5SM BR BKN004=



000
FTUS41 KCTP 301140
TAFJST
TAF
KJST 301140Z 3012/3112 24007KT P6SM SCT030
     FM301400 25008KT P6SM BKN035
     FM301600 27008KT P6SM VCSH BKN035
     FM302200 28007KT P6SM SCT040=



000
FTUS41 KCTP 301140
TAFUNV
TAF
KUNV 301140Z 3012/3112 23005KT P6SM SKC
     FM301500 25007KT P6SM SCT035
     FM301700 27007KT P6SM VCSH BKN040
     FM302300 28007KT P6SM SCT050=



000
FTUS41 KCTP 300933 AAA
TAFUNV
TAF AMD
KUNV 300933Z 3010/3106 VRB03KT P6SM SCT060
     FM301300 25007KT P6SM SCT035
     FM301500 27007KT P6SM VCSH BKN040
     FM302200 28007KT P6SM SCT050=



000
FTUS41 KCTP 300933 AAB
TAFIPT
TAF AMD
KIPT 300933Z 3010/3106 VRB03KT P6SM BKN005
     FM301300 25007KT P6SM SCT035
     FM301600 26007KT P6SM VCSH BKN040
     FM310200 VRB05KT P6SM BKN080=



000
FTUS41 KCTP 300933 AAA
TAFMDT
TAF AMD
KMDT 300933Z 3010/3106 VRB04KT P6SM SCT080
     FM301500 25007KT P6SM SCT050
     FM301900 27007KT P6SM VCSH BKN050
     FM310200 VRB05KT P6SM SKC=



000
FTUS41 KCTP 300933 AAB
TAFBFD
TAF AMD
KBFD 300933Z 3010/3106 VRB03KT P6SM VCSH BKN060
     FM301200 21007KT P6SM VCSH BKN035
     FM302000 26006KT P6SM BKN040=



000
FTUS41 KCTP 300933 AAA
TAFJST
TAF AMD
KJST 300933Z 3010/3106 24007KT P6SM SKC
     FM301200 25008KT P6SM SCT030
     FM301400 27008KT P6SM VCSH BKN035
     FM302100 28007KT P6SM SCT040=



000
FTUS41 KCTP 300933 AAA
TAFUNV
TAF AMD
KUNV 300933Z 3010/3106 VRB03KT P6SM SCT060
     FM301300 25007KT P6SM SCT035
     FM301500 27007KT P6SM VCSH BKN040
     FM302200 28007KT P6SM SCT050=



000
FTUS41 KCTP 300933 AAA
TAFAOO
TAF AMD
KAOO 300933Z 3010/3106 22005KT P6SM SKC
     FM301300 25007KT P6SM SCT035
     FM301500 27007KT P6SM VCSH BKN040
     FM302200 28007KT P6SM SCT050=



000
FTUS41 KCTP 300933 AAA
TAFAOO
TAF AMD
KAOO 300933Z 3010/3106 22005KT P6SM SKC
     FM301300 25007KT P6SM SCT035
     FM301500 27007KT P6SM VCSH BKN040
     FM302200 28007KT P6SM SCT050=



000
FTUS41 KCTP 300933 AAB
TAFIPT
TAF AMD
KIPT 300933Z 3010/3106 VRB03KT P6SM BKN005
     FM301300 25007KT P6SM SCT035
     FM301600 26007KT P6SM VCSH BKN040
     FM310200 VRB05KT P6SM BKN080=



000
FTUS41 KCTP 300933 AAA
TAFMDT
TAF AMD
KMDT 300933Z 3010/3106 VRB04KT P6SM SCT080
     FM301500 25007KT P6SM SCT050
     FM301900 27007KT P6SM VCSH BKN050
     FM310200 VRB05KT P6SM SKC=



000
FTUS41 KCTP 300933 AAB
TAFBFD
TAF AMD
KBFD 300933Z 3010/3106 VRB03KT P6SM VCSH BKN060
     FM301200 21007KT P6SM VCSH BKN035
     FM302000 26006KT P6SM BKN040=



000
FTUS41 KCTP 300933 AAA
TAFJST
TAF AMD
KJST 300933Z 3010/3106 24007KT P6SM SKC
     FM301200 25008KT P6SM SCT030
     FM301400 27008KT P6SM VCSH BKN035
     FM302100 28007KT P6SM SCT040=



000
FTUS41 KCTP 300846 AAA
TAFIPT
TAF AMD
KIPT 300846Z 3009/3106 VRB03KT P6SM BKN006
     FM301300 25007KT P6SM SCT040
     FM301600 26007KT P6SM VCSH BKN040
     FM310200 VRB05KT P6SM BKN080=



000
FTUS41 KCTP 300846 AAA
TAFIPT
TAF AMD
KIPT 300846Z 3009/3106 VRB03KT P6SM BKN006
     FM301300 25007KT P6SM SCT040
     FM301600 26007KT P6SM VCSH BKN040
     FM310200 VRB05KT P6SM BKN080=



000
FTUS41 KCTP 300757 AAA
TAFBFD
TAF AMD
KBFD 300757Z 3008/3106 VRB03KT P6SM VCSH BKN060
     FM301200 21007KT P6SM VCSH BKN035
     FM302000 26006KT P6SM BKN040=



000
FTUS41 KCTP 300757 AAA
TAFBFD
TAF AMD
KBFD 300757Z 3008/3106 VRB03KT P6SM VCSH BKN060
     FM301200 21007KT P6SM VCSH BKN035
     FM302000 26006KT P6SM BKN040=



000
FTUS41 KCTP 300536
TAFIPT
TAF
KIPT 300536Z 3006/3106 VRB03KT P6SM BKN070
     FM301300 25007KT P6SM SCT040
     FM301600 26007KT P6SM VCSH BKN040
     FM310200 VRB05KT P6SM BKN080=



000
FTUS41 KCTP 300536
TAFAOO
TAF
KAOO 300536Z 3006/3106 VRB03KT P6SM SCT060
     FM301300 25007KT P6SM SCT035
     FM301500 27007KT P6SM VCSH BKN040
     FM302200 28007KT P6SM SCT050=



000
FTUS41 KCTP 300536
TAFJST
TAF
KJST 300536Z 3006/3106 24007KT P6SM SKC
     FM301200 25008KT P6SM SCT030
     FM301400 27008KT P6SM VCSH BKN035
     FM302100 28007KT P6SM SCT040=



000
FTUS41 KCTP 300536
TAFBFD
TAF
KBFD 300536Z 3006/3106 VRB03KT P6SM SCT001
      TEMPO 3007/3011 3/4SM BR BKN001
     FM301200 21007KT P6SM VCSH BKN035
     FM302000 26006KT P6SM BKN040=



000
FTUS41 KCTP 300536
TAFAOO
TAF
KAOO 300536Z 3006/3106 VRB03KT P6SM SCT060
     FM301300 25007KT P6SM SCT035
     FM301500 27007KT P6SM VCSH BKN040
     FM302200 28007KT P6SM SCT050=



000
FTUS41 KCTP 300536
TAFIPT
TAF
KIPT 300536Z 3006/3106 VRB03KT P6SM BKN070
     FM301300 25007KT P6SM SCT040
     FM301600 26007KT P6SM VCSH BKN040
     FM310200 VRB05KT P6SM BKN080=



000
FTUS41 KCTP 300536
TAFJST
TAF
KJST 300536Z 3006/3106 24007KT P6SM SKC
     FM301200 25008KT P6SM SCT030
     FM301400 27008KT P6SM VCSH BKN035
     FM302100 28007KT P6SM SCT040=



000
FTUS41 KCTP 300536
TAFUNV
TAF
KUNV 300536Z 3006/3106 VRB03KT P6SM SCT060
     FM301300 25007KT P6SM SCT035
     FM301500 27007KT P6SM VCSH BKN040
     FM302200 28007KT P6SM SCT050=



000
FTUS41 KCTP 300536
TAFBFD
TAF
KBFD 300536Z 3006/3106 VRB03KT P6SM SCT001
      TEMPO 3007/3011 3/4SM BR BKN001
     FM301200 21007KT P6SM VCSH BKN035
     FM302000 26006KT P6SM BKN040=



000
FTUS41 KCTP 300536
TAFMDT
TAF
KMDT 300536Z 3006/3106 VRB04KT P6SM SCT080
     FM301500 25007KT P6SM SCT050
     FM301900 27007KT P6SM VCSH BKN050
     FM310200 VRB05KT P6SM SKC=



000
FTUS41 KCTP 300536
TAFMDT
TAF
KMDT 300536Z 3006/3106 VRB04KT P6SM SCT080
     FM301500 25007KT P6SM SCT050
     FM301900 27007KT P6SM VCSH BKN050
     FM310200 VRB05KT P6SM SKC=



000
FTUS41 KCTP 300536
TAFUNV
TAF
KUNV 300536Z 3006/3106 VRB03KT P6SM SCT060
     FM301300 25007KT P6SM SCT035
     FM301500 27007KT P6SM VCSH BKN040
     FM302200 28007KT P6SM SCT050=



000
FTUS41 KCTP 300424 AAC
TAFBFD
TAF AMD
KBFD 300424Z 3004/3024 VRB03KT P6SM BKN001
      TEMPO 3004/3008 1SM BR SCT001
     FM301000 VRB03KT P6SM VCFG SCT020
     FM301400 07005KT P6SM VCSH BKN035=



000
FTUS41 KCTP 300424 AAC
TAFBFD
TAF AMD
KBFD 300424Z 3004/3024 VRB03KT P6SM BKN001
      TEMPO 3004/3008 1SM BR SCT001
     FM301000 VRB03KT P6SM VCFG SCT020
     FM301400 07005KT P6SM VCSH BKN035=



000
FTUS41 KCTP 300420 AAB
TAFBFD
TAF AMD
KBFD 300420Z 3004/3024 VRB03KT P6SM BKN001
      TEMPO 3005/3009 2SM BR SCT001
     FM301000 VRB03KT P6SM VCFG SCT020
     FM301400 07005KT P6SM VCSH BKN035=



000
FTUS41 KCTP 300420 AAB
TAFBFD
TAF AMD
KBFD 300420Z 3004/3024 VRB03KT P6SM BKN001
      TEMPO 3005/3009 2SM BR SCT001
     FM301000 VRB03KT P6SM VCFG SCT020
     FM301400 07005KT P6SM VCSH BKN035=



000
FTUS41 KCTP 300325 AAA
TAFAOO
TAF AMD
KAOO 300325Z 3003/3024 VRB03KT P6SM SCT060
     FM301300 27005KT P6SM BKN050
     FM301700 28007KT P6SM VCSH BKN035=



000
FTUS41 KCTP 300325 AAA
TAFIPT
TAF AMD
KIPT 300325Z 3003/3024 VRB03KT P6SM BKN060
     FM301500 27005KT P6SM BKN050
     FM301800 23007KT P6SM VCSH BKN040=



000
FTUS41 KCTP 300325 AAA
TAFMDT
TAF AMD
KMDT 300325Z 3003/3024 VRB04KT P6SM SCT080
     FM302100 28005KT P6SM BKN050=



000
FTUS41 KCTP 300325 AAA
TAFUNV
TAF AMD
KUNV 300325Z 3003/3024 25005KT P6SM SCT060
     FM301500 27005KT P6SM BKN060
     FM301800 25006KT P6SM VCSH BKN040=



000
FTUS41 KCTP 300325 AAA
TAFJST
TAF AMD
KJST 300325Z 3003/3024 VRB03KT P6SM SKC
     FM301200 27008KT P6SM BKN040
     FM301700 27008KT P6SM VCSH BKN035=



000
FTUS41 KCTP 300325 AAA
TAFBFD
TAF AMD
KBFD 300325Z 3003/3024 VRB03KT P6SM SKC
     FM301000 VRB03KT P6SM VCFG SCT020
     FM301400 07005KT P6SM VCSH BKN035=



000
FTUS41 KCTP 292339
TAFIPT
TAF
KIPT 292339Z 3000/3024 27005KT P6SM BKN080
     FM300000 28004KT P6SM SCT050
     FM301600 27005KT P6SM BKN050
     FM301800 23007KT P6SM VCSH BKN040=



000
FTUS41 KCTP 292339
TAFUNV
TAF
KUNV 292339Z 3000/3024 26005KT P6SM SCT025 BKN060
     FM300000 25005KT P6SM SCT050
     FM301500 27005KT P6SM BKN050
     FM301800 25006KT P6SM VCSH BKN040=



000
FTUS41 KCTP 292339
TAFMDT
TAF
KMDT 292339Z 3000/3024 31008KT P6SM SCT040 BKN060
     FM300000 31004KT P6SM FEW050
     FM301400 28005KT P6SM SCT050=



000
FTUS41 KCTP 292339
TAFAOO
TAF
KAOO 292339Z 3000/3024 31006KT P6SM BKN060
     FM300000 27005KT P6SM SCT050
     FM301500 27005KT P6SM BKN050
     FM301700 28007KT P6SM VCSH BKN035=



000
FTUS41 KCTP 292339
TAFUNV
TAF
KUNV 292339Z 3000/3024 26005KT P6SM SCT025 BKN060
     FM300000 25005KT P6SM SCT050
     FM301500 27005KT P6SM BKN050
     FM301800 25006KT P6SM VCSH BKN040=



000
FTUS41 KCTP 292339
TAFBFD
TAF
KBFD 292339Z 3000/3024 29005KT P6SM SCT025 OVC060
     FM300000 24004KT P6SM BKN040
     FM301400 27005KT P6SM VCSH BKN035=



000
FTUS41 KCTP 292339
TAFIPT
TAF
KIPT 292339Z 3000/3024 27005KT P6SM BKN080
     FM300000 28004KT P6SM SCT050
     FM301600 27005KT P6SM BKN050
     FM301800 23007KT P6SM VCSH BKN040=



000
FTUS41 KCTP 292339
TAFBFD
TAF
KBFD 292339Z 3000/3024 29005KT P6SM SCT025 OVC060
     FM300000 24004KT P6SM BKN040
     FM301400 27005KT P6SM VCSH BKN035=



000
FTUS41 KCTP 292339
TAFJST
TAF
KJST 292339Z 3000/3024 29006KT P6SM SCT035 OVC060
     FM300000 24005KT P6SM SCT040
     FM301500 27008KT P6SM BKN040
     FM301700 27008KT P6SM VCSH BKN035=



000
FTUS41 KCTP 292339
TAFAOO
TAF
KAOO 292339Z 3000/3024 31006KT P6SM BKN060
     FM300000 27005KT P6SM SCT050
     FM301500 27005KT P6SM BKN050
     FM301700 28007KT P6SM VCSH BKN035=



000
FTUS41 KCTP 292339
TAFJST
TAF
KJST 292339Z 3000/3024 29006KT P6SM SCT035 OVC060
     FM300000 24005KT P6SM SCT040
     FM301500 27008KT P6SM BKN040
     FM301700 27008KT P6SM VCSH BKN035=



000
FTUS41 KCTP 292339
TAFMDT
TAF
KMDT 292339Z 3000/3024 31008KT P6SM SCT040 BKN060
     FM300000 31004KT P6SM FEW050
     FM301400 28005KT P6SM SCT050=



000
FTUS41 KCTP 292107 AAA
TAFMDT
TAF AMD
KMDT 292107Z 2921/3018 31008KT P6SM SCT040 BKN060
     FM300000 31004KT P6SM FEW050
     FM301400 28005KT P6SM SCT050=



000
FTUS41 KCTP 292107 AAA
TAFJST
TAF AMD
KJST 292107Z 2921/3018 29006KT P6SM SCT035 OVC060
     FM300000 24005KT P6SM SCT040
     FM301500 27008KT P6SM BKN040=



000
FTUS41 KCTP 292107 AAA
TAFMDT
TAF AMD
KMDT 292107Z 2921/3018 31008KT P6SM SCT040 BKN060
     FM300000 31004KT P6SM FEW050
     FM301400 28005KT P6SM SCT050=



000
FTUS41 KCTP 292107 AAA
TAFIPT
TAF AMD
KIPT 292107Z 2921/3018 27005KT P6SM BKN080
     FM300000 28004KT P6SM SCT050
     FM301600 27005KT P6SM BKN050=



000
FTUS41 KCTP 292107 AAA
TAFBFD
TAF AMD
KBFD 292107Z 2921/3018 29005KT P6SM SCT025 OVC060
     FM300000 24004KT P6SM BKN040
     FM301400 27005KT P6SM VCSH BKN035=



000
FTUS41 KCTP 292107 AAA
TAFUNV
TAF AMD
KUNV 292107Z 2921/3018 26005KT P6SM SCT025 BKN060
     FM300000 25005KT P6SM SCT050
     FM301500 27005KT P6SM BKN050=



000
FTUS41 KCTP 292107 AAA
TAFBFD
TAF AMD
KBFD 292107Z 2921/3018 29005KT P6SM SCT025 OVC060
     FM300000 24004KT P6SM BKN040
     FM301400 27005KT P6SM VCSH BKN035=



000
FTUS41 KCTP 292107 AAA
TAFAOO
TAF AMD
KAOO 292107Z 2921/3018 31006KT P6SM BKN060
     FM300000 27005KT P6SM SCT050
     FM301500 27005KT P6SM BKN050=



000
FTUS41 KCTP 292107 AAA
TAFJST
TAF AMD
KJST 292107Z 2921/3018 29006KT P6SM SCT035 OVC060
     FM300000 24005KT P6SM SCT040
     FM301500 27008KT P6SM BKN040=



000
FTUS41 KCTP 292107 AAA
TAFIPT
TAF AMD
KIPT 292107Z 2921/3018 27005KT P6SM BKN080
     FM300000 28004KT P6SM SCT050
     FM301600 27005KT P6SM BKN050=



000
FTUS41 KCTP 292107 AAA
TAFUNV
TAF AMD
KUNV 292107Z 2921/3018 26005KT P6SM SCT025 BKN060
     FM300000 25005KT P6SM SCT050
     FM301500 27005KT P6SM BKN050=



000
FTUS41 KCTP 292107 AAA
TAFAOO
TAF AMD
KAOO 292107Z 2921/3018 31006KT P6SM BKN060
     FM300000 27005KT P6SM SCT050
     FM301500 27005KT P6SM BKN050=



000
FTUS41 KCTP 291728
TAFMDT
TAF
KMDT 291728Z 2918/3018 32008KT P6SM BKN060
     FM300000 31004KT P6SM FEW050
     FM301400 28005KT P6SM SCT050=



000
FTUS41 KCTP 291728
TAFAOO
TAF
KAOO 291728Z 2918/3018 31008KT P6SM BKN045
     FM300000 27005KT P6SM SCT050
     FM301500 27005KT P6SM BKN050=



000
FTUS41 KCTP 291728
TAFJST
TAF
KJST 291728Z 2918/3018 28008KT P6SM SCT025 OVC040
     FM300000 24005KT P6SM SCT040
     FM301500 27008KT P6SM BKN040=



000
FTUS41 KCTP 291728
TAFUNV
TAF
KUNV 291728Z 2918/3018 31012KT P6SM BKN045
     FM300000 25005KT P6SM SCT050
     FM301500 27005KT P6SM BKN050=



000
FTUS41 KCTP 291728
TAFBFD
TAF
KBFD 291728Z 2918/3018 29005KT P6SM SCT025 OVC040
     FM300000 24004KT P6SM BKN040
     FM301400 27005KT P6SM VCSH BKN035=



000
FTUS41 KCTP 291728
TAFIPT
TAF
KIPT 291728Z 2918/3018 29008KT P6SM BKN050
     FM300000 28004KT P6SM SCT050
     FM301600 27005KT P6SM BKN050=



000
FTUS41 KCTP 291728
TAFAOO
TAF
KAOO 291728Z 2918/3018 31008KT P6SM BKN045
     FM300000 27005KT P6SM SCT050
     FM301500 27005KT P6SM BKN050=



000
FTUS41 KCTP 291728
TAFUNV
TAF
KUNV 291728Z 2918/3018 31012KT P6SM BKN045
     FM300000 25005KT P6SM SCT050
     FM301500 27005KT P6SM BKN050=



000
FTUS41 KCTP 291728
TAFBFD
TAF
KBFD 291728Z 2918/3018 29005KT P6SM SCT025 OVC040
     FM300000 24004KT P6SM BKN040
     FM301400 27005KT P6SM VCSH BKN035=



000
FTUS41 KCTP 291728
TAFIPT
TAF
KIPT 291728Z 2918/3018 29008KT P6SM BKN050
     FM300000 28004KT P6SM SCT050
     FM301600 27005KT P6SM BKN050=



000
FTUS41 KCTP 291728
TAFMDT
TAF
KMDT 291728Z 2918/3018 32008KT P6SM BKN060
     FM300000 31004KT P6SM FEW050
     FM301400 28005KT P6SM SCT050=



000
FTUS41 KCTP 291728
TAFJST
TAF
KJST 291728Z 2918/3018 28008KT P6SM SCT025 OVC040
     FM300000 24005KT P6SM SCT040
     FM301500 27008KT P6SM BKN040=



000
FTUS41 KCTP 291523 AAA
TAFAOO
TAF AMD
KAOO 291523Z 2915/3012 31008KT P6SM BKN045
     FM300000 27005KT P6SM SCT050=



000
FTUS41 KCTP 291523 AAB
TAFIPT
TAF AMD
KIPT 291523Z 2915/3012 29008KT P6SM BKN050
     FM300000 28004KT P6SM SCT050=



000
FTUS41 KCTP 291523 AAC
TAFJST
TAF AMD
KJST 291523Z 2915/3012 28008KT P6SM SCT025 OVC040
     FM300000 25005KT P6SM SCT040=



000
FTUS41 KCTP 291523 AAA
TAFAOO
TAF AMD
KAOO 291523Z 2915/3012 31008KT P6SM BKN045
     FM300000 27005KT P6SM SCT050=



000
FTUS41 KCTP 291523 AAC
TAFJST
TAF AMD
KJST 291523Z 2915/3012 28008KT P6SM SCT025 OVC040
     FM300000 25005KT P6SM SCT040=



000
FTUS41 KCTP 291523 AAB
TAFBFD
TAF AMD
KBFD 291523Z 2915/3012 29005KT P6SM SCT025 OVC040
     FM300000 24004KT P6SM BKN040=



000
FTUS41 KCTP 291523 AAB
TAFBFD
TAF AMD
KBFD 291523Z 2915/3012 29005KT P6SM SCT025 OVC040
     FM300000 24004KT P6SM BKN040=



000
FTUS41 KCTP 291523 AAA
TAFUNV
TAF AMD
KUNV 291523Z 2915/3012 28005KT P6SM BKN045
     FM300000 25005KT P6SM SCT050=



000
FTUS41 KCTP 291523 AAA
TAFMDT
TAF AMD
KMDT 291523Z 2915/3012 32008KT P6SM BKN060
     FM300000 31004KT P6SM FEW050=



000
FTUS41 KCTP 291523 AAA
TAFUNV
TAF AMD
KUNV 291523Z 2915/3012 28005KT P6SM BKN045
     FM300000 25005KT P6SM SCT050=



000
FTUS41 KCTP 291523 AAB
TAFIPT
TAF AMD
KIPT 291523Z 2915/3012 29008KT P6SM BKN050
     FM300000 28004KT P6SM SCT050=



000
FTUS41 KCTP 291523 AAA
TAFMDT
TAF AMD
KMDT 291523Z 2915/3012 32008KT P6SM BKN060
     FM300000 31004KT P6SM FEW050=



000
FTUS41 KCTP 291413 AAB
TAFJST
TAF AMD
KJST 291413Z 2914/3012 29005KT P6SM BKN015 OVC030
     FM291700 26008G15KT P6SM SCT025 BKN040
     FM300100 28005KT P6SM BKN030=



000
FTUS41 KCTP 291413 AAB
TAFJST
TAF AMD
KJST 291413Z 2914/3012 29005KT P6SM BKN015 OVC030
     FM291700 26008G15KT P6SM SCT025 BKN040
     FM300100 28005KT P6SM BKN030=



000
FTUS41 KCTP 291213 AAA
TAFIPT
TAF AMD
KIPT 291213Z 2912/3012 26007KT P6SM SCT035
     FM291400 25007KT P6SM BKN040
     FM300200 26005KT P6SM SCT035=



000
FTUS41 KCTP 291213 AAA
TAFIPT
TAF AMD
KIPT 291213Z 2912/3012 26007KT P6SM SCT035
     FM291400 25007KT P6SM BKN040
     FM300200 26005KT P6SM SCT035=



000
FTUS41 KCTP 291212 AAA
TAFJST
TAF AMD
KJST 291212Z 2912/3012 29005KT P6SM BKN005 OVC010
     FM291500 29008KT P6SM BKN015
     FM291900 26008G15KT P6SM -SHRA BKN030
     FM300100 28005KT P6SM BKN030=



000
FTUS41 KCTP 291212 AAA
TAFJST
TAF AMD
KJST 291212Z 2912/3012 29005KT P6SM BKN005 OVC010
     FM291500 29008KT P6SM BKN015
     FM291900 26008G15KT P6SM -SHRA BKN030
     FM300100 28005KT P6SM BKN030=



000
FTUS41 KCTP 291211 AAA
TAFBFD
TAF AMD
KBFD 291211Z 2912/3012 30005KT P6SM BKN007 OVC015
     FM291500 29007KT P6SM BKN025
     FM291800 28008G15KT P6SM -SHRA OVC030
     FM300100 22007KT P6SM VCSH BKN030=



000
FTUS41 KCTP 291211 AAA
TAFBFD
TAF AMD
KBFD 291211Z 2912/3012 30005KT P6SM BKN007 OVC015
     FM291500 29007KT P6SM BKN025
     FM291800 28008G15KT P6SM -SHRA OVC030
     FM300100 22007KT P6SM VCSH BKN030=



000
FTUS41 KCTP 291120
TAFAOO
TAF
KAOO 291120Z 2912/3012 23005KT P6SM BKN018
     FM291400 24007KT P6SM BKN040
     FM300200 27005KT P6SM SCT035=



000
FTUS41 KCTP 291120
TAFJST
TAF
KJST 291120Z 2912/3012 29007KT P6SM SCT017 BKN025
     FM291500 29008KT P6SM BKN035
     FM291900 26008G15KT P6SM -SHRA BKN035
     FM300100 28005KT P6SM BKN030=



000
FTUS41 KCTP 291120
TAFAOO
TAF
KAOO 291120Z 2912/3012 23005KT P6SM BKN018
     FM291400 24007KT P6SM BKN040
     FM300200 27005KT P6SM SCT035=



000
FTUS41 KCTP 291120
TAFBFD
TAF
KBFD 291120Z 2912/3012 30004KT P6SM BKN020
     FM291500 29007KT P6SM BKN035
     FM291800 28008G15KT P6SM -SHRA OVC030
     FM300100 22007KT P6SM VCSH BKN030=



000
FTUS41 KCTP 291120
TAFUNV
TAF
KUNV 291120Z 2912/3012 23005KT P6SM BKN025
     FM291400 24007KT P6SM BKN040
     FM300200 27005KT P6SM SCT035=



000
FTUS41 KCTP 291120
TAFIPT
TAF
KIPT 291120Z 2912/3012 26005KT P6SM BKN025
     FM291400 25007KT P6SM BKN040
     FM300200 26005KT P6SM SCT035=



000
FTUS41 KCTP 291120
TAFJST
TAF
KJST 291120Z 2912/3012 29007KT P6SM SCT017 BKN025
     FM291500 29008KT P6SM BKN035
     FM291900 26008G15KT P6SM -SHRA BKN035
     FM300100 28005KT P6SM BKN030=



000
FTUS41 KCTP 291120
TAFUNV
TAF
KUNV 291120Z 2912/3012 23005KT P6SM BKN025
     FM291400 24007KT P6SM BKN040
     FM300200 27005KT P6SM SCT035=



000
FTUS41 KCTP 291120
TAFMDT
TAF
KMDT 291120Z 2912/3012 30005KT P6SM SCT035
     FM291400 29007KT P6SM SCT040
     FM300200 27005KT P6SM SCT035=



000
FTUS41 KCTP 291120
TAFMDT
TAF
KMDT 291120Z 2912/3012 30005KT P6SM SCT035
     FM291400 29007KT P6SM SCT040
     FM300200 27005KT P6SM SCT035=



000
FTUS41 KCTP 291120
TAFBFD
TAF
KBFD 291120Z 2912/3012 30004KT P6SM BKN020
     FM291500 29007KT P6SM BKN035
     FM291800 28008G15KT P6SM -SHRA OVC030
     FM300100 22007KT P6SM VCSH BKN030=



000
FTUS41 KCTP 291120
TAFIPT
TAF
KIPT 291120Z 2912/3012 26005KT P6SM BKN025
     FM291400 25007KT P6SM BKN040
     FM300200 26005KT P6SM SCT035=



000
FTUS41 KCTP 290931 AAD
TAFIPT
TAF AMD
KIPT 290931Z 2910/3006 26005KT P6SM BKN025
     FM291400 29007KT P6SM BKN040=



000
FTUS41 KCTP 290931 AAC
TAFMDT
TAF AMD
KMDT 290931Z 2910/3006 26005KT P6SM SKC
     FM291400 32007KT P6SM SCT040=



000
FTUS41 KCTP 290931 AAD
TAFIPT
TAF AMD
KIPT 290931Z 2910/3006 26005KT P6SM BKN025
     FM291400 29007KT P6SM BKN040=



000
FTUS41 KCTP 290931 AAG
TAFJST
TAF AMD
KJST 290931Z 2910/3006 30007KT P6SM BKN025
     FM291300 29008KT P6SM BKN035
     FM291900 26008G15KT P6SM -SHRA BKN035=



000
FTUS41 KCTP 290931 AAG
TAFUNV
TAF AMD
KUNV 290931Z 2910/3006 23005KT P6SM BKN025
     FM291300 31007KT P6SM BKN040=



000
FTUS41 KCTP 290931 AAC
TAFMDT
TAF AMD
KMDT 290931Z 2910/3006 26005KT P6SM SKC
     FM291400 32007KT P6SM SCT040=



000
FTUS41 KCTP 290931 AAF
TAFBFD
TAF AMD
KBFD 290931Z 2910/3006 31007KT P6SM BKN020
     FM291300 33007KT P6SM BKN035
     FM291800 31008G15KT P6SM -SHRA OVC030=



000
FTUS41 KCTP 290931 AAE
TAFAOO
TAF AMD
KAOO 290931Z 2910/3006 23005KT P6SM BKN018
     FM291300 32007KT P6SM BKN040=



000
FTUS41 KCTP 290931 AAG
TAFUNV
TAF AMD
KUNV 290931Z 2910/3006 23005KT P6SM BKN025
     FM291300 31007KT P6SM BKN040=



000
FTUS41 KCTP 290931 AAG
TAFJST
TAF AMD
KJST 290931Z 2910/3006 30007KT P6SM BKN025
     FM291300 29008KT P6SM BKN035
     FM291900 26008G15KT P6SM -SHRA BKN035=



000
FTUS41 KCTP 290931 AAF
TAFBFD
TAF AMD
KBFD 290931Z 2910/3006 31007KT P6SM BKN020
     FM291300 33007KT P6SM BKN035
     FM291800 31008G15KT P6SM -SHRA OVC030=



000
FTUS41 KCTP 290931 AAE
TAFAOO
TAF AMD
KAOO 290931Z 2910/3006 23005KT P6SM BKN018
     FM291300 32007KT P6SM BKN040=



000
FTUS41 KCTP 290828 AAF
TAFJST
TAF AMD
KJST 290828Z 2908/3006 30008KT P6SM BKN025
     FM291300 29008KT P6SM BKN035
     FM291900 26008G15KT P6SM -SHRA BKN035=



000
FTUS41 KCTP 290828 AAF
TAFUNV
TAF AMD
KUNV 290828Z 2908/3006 30005KT P6SM BKN030
     FM291300 31007KT P6SM BKN040=



000
FTUS41 KCTP 290828 AAF
TAFUNV
TAF AMD
KUNV 290828Z 2908/3006 30005KT P6SM BKN030
     FM291300 31007KT P6SM BKN040=



000
FTUS41 KCTP 290825 AAE
TAFBFD
TAF AMD
KBFD 290825Z 2908/3006 31007KT P6SM BKN020
     FM291300 33007KT P6SM BKN035
     FM291800 31008G15KT P6SM -SHRA OVC030=



000
FTUS41 KCTP 290825 AAE
TAFBFD
TAF AMD
KBFD 290825Z 2908/3006 31007KT P6SM BKN020
     FM291300 33007KT P6SM BKN035
     FM291800 31008G15KT P6SM -SHRA OVC030=



000
FTUS41 KCTP 290809 AAD
TAFBFD
TAF AMD
KBFD 290809Z 2908/3006 31007KT P6SM SCT020 BKN040
     FM291000 34004KT P6SM BKN009
     FM291300 33007KT P6SM BKN035
     FM291800 31008G15KT P6SM -SHRA OVC030=



000
FTUS41 KCTP 290809 AAD
TAFBFD
TAF AMD
KBFD 290809Z 2908/3006 31007KT P6SM SCT020 BKN040
     FM291000 34004KT P6SM BKN009
     FM291300 33007KT P6SM BKN035
     FM291800 31008G15KT P6SM -SHRA OVC030=



000
FTUS41 KCTP 290808 AAD
TAFAOO
TAF AMD
KAOO 290808Z 2908/3006 29005KT P6SM SCT020
     FM291300 32007KT P6SM BKN040=



000
FTUS41 KCTP 290808 AAD
TAFAOO
TAF AMD
KAOO 290808Z 2908/3006 29005KT P6SM SCT020
     FM291300 32007KT P6SM BKN040=



000
FTUS41 KCTP 290808 AAE
TAFJST
TAF AMD
KJST 290808Z 2908/3006 30008KT P6SM SCT015
     FM291100 31006KT P6SM SCT009
     FM291300 29008KT P6SM BKN035
     FM291900 26008G15KT P6SM -SHRA BKN035=



000
FTUS41 KCTP 290717 AAC
TAFIPT
TAF AMD
KIPT 290717Z 2907/3006 29005KT P6SM BKN025
     FM291400 29007KT P6SM BKN040=



000
FTUS41 KCTP 290717 AAC
TAFIPT
TAF AMD
KIPT 290717Z 2907/3006 29005KT P6SM BKN025
     FM291400 29007KT P6SM BKN040=



000
FTUS41 KCTP 290717 AAE
TAFUNV
TAF AMD
KUNV 290717Z 2907/3006 30005KT P6SM BKN018
     FM291300 31007KT P6SM BKN040=



000
FTUS41 KCTP 290717 AAE
TAFUNV
TAF AMD
KUNV 290717Z 2907/3006 30005KT P6SM BKN018
     FM291300 31007KT P6SM BKN040=



000
FTUS41 KCTP 290710 AAC
TAFUNV
TAF AMD
KUNV 290710Z 2907/3006 30005KT P6SM BKN025
     FM291300 31007KT P6SM BKN040=



000
FTUS41 KCTP 290710 AAC
TAFUNV
TAF AMD
KUNV 290710Z 2907/3006 30005KT P6SM BKN025
     FM291300 31007KT P6SM BKN040=



000
FTUS41 KCTP 290710 AAD
TAFUNV
TAF AMD
KUNV 290710Z 2907/3006 30005KT P6SM BKN018
     FM291300 31007KT P6SM BKN040=



000
FTUS41 KCTP 290710 AAD
TAFUNV
TAF AMD
KUNV 290710Z 2907/3006 30005KT P6SM BKN018
     FM291300 31007KT P6SM BKN040=



    US Dept of Commerce
    National Oceanic and Atmospheric Administration
    National Weather Service
    1325 East West Highway
    Silver Spring, MD 20910
    Page Author: NWS Internet Services Team
Disclaimer
Information Quality
Credits
Glossary
Privacy Policy
Freedom of Information Act (FOIA)
About Us
Career Opportunities